<?xml version="1.0" encoding="UTF-8"?>
<gpx xmlns:xsi="http://www.w3.org/2001/XMLSchema-instance" xmlns="http://www.topografix.com/GPX/1/1" xsi:schemaLocation="http://www.topografix.com/GPX/1/1 http://www.topografix.com/GPX/1/1/gpx.xsd http://www.garmin.com/xmlschemas/GpxExtensions/v3 http://www.garmin.com/xmlschemas/GpxExtensionsv3.xsd http://www.garmin.com/xmlschemas/TrackPointExtension/v1 http://www.garmin.com/xmlschemas/TrackPointExtensionv1.xsd http://www.topografix.com/GPX/gpx_style/0/2 http://www.topografix.com/GPX/gpx_style/0/2/gpx_style.xsd" xmlns:gpxtpx="http://www.garmin.com/xmlschemas/TrackPointExtension/v1" xmlns:gpxx="http://www.garmin.com/xmlschemas/GpxExtensions/v3" xmlns:gpx_style="http://www.topografix.com/GPX/gpx_style/0/2" version="1.1" creator="http://thydzik.com">
<metadata>
    <name>5 ibilbidea_MENDIGAINEKO BIRA_20230222</name>
    <author>
        <name>gpx.studio</name>
        <link href="https://gpx.studio"></link>
    </author>
</metadata>
<trk>
    <name>5 ibilbidea_MENDIGAINEKO BIRA_20230222</name>
    <type>Cycling</type>
    <trkseg>
    <trkpt lat="43.16865890980047" lon="-2.641639595957712">
        <ele>110.7</ele>
        <time>2023-02-22T10:25:58.000Z</time>
    </trkpt>
    <trkpt lat="43.16844615372413" lon="-2.64166901085469">
        <ele>110.5</ele>
        <time>2023-02-22T10:26:22.442Z</time>
    </trkpt>
    <trkpt lat="43.1682220160432" lon="-2.641714675036027">
        <ele>110.3</ele>
        <time>2023-02-22T10:26:49.390Z</time>
    </trkpt>
    <trkpt lat="43.16810625008126" lon="-2.641723155114006">
        <ele>110.3</ele>
        <time>2023-02-22T10:27:03.371Z</time>
    </trkpt>
    <trkpt lat="43.16803112785949" lon="-2.64174344219666">
        <ele>110.9</ele>
        <time>2023-02-22T10:27:12.480Z</time>
    </trkpt>
    <trkpt lat="43.16796831727703" lon="-2.641740085105964">
        <ele>111.4</ele>
        <time>2023-02-22T10:27:20.043Z</time>
    </trkpt>
    <trkpt lat="43.16791430590801" lon="-2.641752454538763">
        <ele>111.9</ele>
        <time>2023-02-22T10:27:26.546Z</time>
    </trkpt>
    <trkpt lat="43.16779484673089" lon="-2.641769378577933">
        <ele>112.7</ele>
        <time>2023-02-22T10:27:40.747Z</time>
    </trkpt>
    <trkpt lat="43.16769262860402" lon="-2.641781231309359">
        <ele>113.3</ele>
        <time>2023-02-22T10:27:53.038Z</time>
    </trkpt>
    <trkpt lat="43.16759041184927" lon="-2.641801526853675">
        <ele>113.7</ele>
        <time>2023-02-22T10:28:05.259Z</time>
    </trkpt>
    <trkpt lat="43.16751651941394" lon="-2.641811681881033">
        <ele>113.8</ele>
        <time>2023-02-22T10:28:14.069Z</time>
    </trkpt>
    <trkpt lat="43.16747711602531" lon="-2.641852220088464">
        <ele>114.0</ele>
        <time>2023-02-22T10:28:20.006Z</time>
    </trkpt>
    <trkpt lat="43.16744387303134" lon="-2.64190795340054">
        <ele>114.3</ele>
        <time>2023-02-22T10:28:26.251Z</time>
    </trkpt>
    <trkpt lat="43.16743650633337" lon="-2.642043041096019">
        <ele>114.7</ele>
        <time>2023-02-22T10:28:37.940Z</time>
    </trkpt>
    <trkpt lat="43.16745253284194" lon="-2.642139284400316">
        <ele>115.0</ele>
        <time>2023-02-22T10:28:46.442Z</time>
    </trkpt>
    <trkpt lat="43.16746363629156" lon="-2.642255792182727">
        <ele>115.3</ele>
        <time>2023-02-22T10:28:56.651Z</time>
    </trkpt>
    <trkpt lat="43.16748460266743" lon="-2.64243646274254">
        <ele>115.9</ele>
        <time>2023-02-22T10:29:12.448Z</time>
    </trkpt>
    <trkpt lat="43.16749818196148" lon="-2.642630553051875">
        <ele>116.5</ele>
        <time>2023-02-22T10:29:29.115Z</time>
    </trkpt>
    <trkpt lat="43.16752160414897" lon="-2.642769008684144">
        <ele>116.8</ele>
        <time>2023-02-22T10:29:41.503Z</time>
    </trkpt>
    <trkpt lat="43.16754625501249" lon="-2.642890578453056">
        <ele>117.2</ele>
        <time>2023-02-22T10:29:52.632Z</time>
    </trkpt>
    <trkpt lat="43.16758321878989" lon="-2.642995259042562">
        <ele>117.3</ele>
        <time>2023-02-22T10:30:02.773Z</time>
    </trkpt>
    <trkpt lat="43.16760909273115" lon="-2.643064482957293">
        <ele>117.4</ele>
        <time>2023-02-22T10:30:09.877Z</time>
    </trkpt>
    <trkpt lat="43.16765221234905" lon="-2.643157342004714">
        <ele>117.3</ele>
        <time>2023-02-22T10:30:19.812Z</time>
    </trkpt>
    <trkpt lat="43.16770148739608" lon="-2.643235002134301">
        <ele>117.3</ele>
        <time>2023-02-22T10:30:28.968Z</time>
    </trkpt>
    <trkpt lat="43.16771012316359" lon="-2.643329560531943">
        <ele>117.3</ele>
        <time>2023-02-22T10:30:37.320Z</time>
    </trkpt>
    <trkpt lat="43.167726" lon="-2.643423">
        <ele>117.4</ele>
        <time>2023-02-22T10:30:45.620Z</time>
    </trkpt>
    <trkpt lat="43.167673" lon="-2.643649">
        <ele>116.1</ele>
        <time>2023-02-22T10:31:05.977Z</time>
    </trkpt>
    <trkpt lat="43.167648" lon="-2.643838">
        <ele>115.1</ele>
        <time>2023-02-22T10:31:22.322Z</time>
    </trkpt>
    <trkpt lat="43.16764681635551" lon="-2.643992794167804">
        <ele>114.6</ele>
        <time>2023-02-22T10:31:35.472Z</time>
    </trkpt>
    <trkpt lat="43.16763945278186" lon="-2.64416481710358">
        <ele>114.5</ele>
        <time>2023-02-22T10:31:50.175Z</time>
    </trkpt>
    <trkpt lat="43.167629" lon="-2.644328">
        <ele>114.8</ele>
        <time>2023-02-22T10:32:03.944Z</time>
    </trkpt>
    <trkpt lat="43.16760652331611" lon="-2.644467760870962">
        <ele>115.5</ele>
        <time>2023-02-22T10:32:16.456Z</time>
    </trkpt>
    <trkpt lat="43.16758683697135" lon="-2.644596097650505">
        <ele>116.4</ele>
        <time>2023-02-22T10:32:27.779Z</time>
    </trkpt>
    <trkpt lat="43.16755360397332" lon="-2.644729503672755">
        <ele>117.5</ele>
        <time>2023-02-22T10:32:39.823Z</time>
    </trkpt>
    <trkpt lat="43.16752529883276" lon="-2.644874728184241">
        <ele>118.5</ele>
        <time>2023-02-22T10:32:52.594Z</time>
    </trkpt>
    <trkpt lat="43.16748222284521" lon="-2.645077367822201">
        <ele>119.9</ele>
        <time>2023-02-22T10:33:10.504Z</time>
    </trkpt>
    <trkpt lat="43.16744283955369" lon="-2.645268186476708">
        <ele>122.0</ele>
        <time>2023-02-22T10:33:27.444Z</time>
    </trkpt>
    <trkpt lat="43.16738252808875" lon="-2.645523176346587">
        <ele>124.8</ele>
        <time>2023-02-22T10:33:51.299Z</time>
    </trkpt>
    <trkpt lat="43.167083" lon="-2.646911">
        <ele>140.6</ele>
        <time>2023-02-22T10:36:19.936Z</time>
    </trkpt>
    <trkpt lat="43.16703" lon="-2.64716">
        <ele>145.3</ele>
        <time>2023-02-22T10:36:48.309Z</time>
    </trkpt>
    <trkpt lat="43.16696" lon="-2.64754">
        <ele>149.8</ele>
        <time>2023-02-22T10:37:31.473Z</time>
    </trkpt>
    <trkpt lat="43.16685" lon="-2.64794">
        <ele>155.2</ele>
        <time>2023-02-22T10:38:21.083Z</time>
    </trkpt>
    <trkpt lat="43.16684" lon="-2.64796">
        <ele>155.4</ele>
        <time>2023-02-22T10:38:23.722Z</time>
    </trkpt>
    <trkpt lat="43.16675" lon="-2.64823">
        <ele>158.7</ele>
        <time>2023-02-22T10:39:00.180Z</time>
    </trkpt>
    <trkpt lat="43.16662" lon="-2.64861">
        <ele>160.9</ele>
        <time>2023-02-22T10:39:59.237Z</time>
    </trkpt>
    <trkpt lat="43.16654" lon="-2.64883">
        <ele>162.9</ele>
        <time>2023-02-22T10:40:31.236Z</time>
    </trkpt>
    <trkpt lat="43.16646" lon="-2.64905">
        <ele>164.2</ele>
        <time>2023-02-22T10:41:00.879Z</time>
    </trkpt>
    <trkpt lat="43.16643" lon="-2.6491">
        <ele>164.5</ele>
        <time>2023-02-22T10:41:09.323Z</time>
    </trkpt>
    <trkpt lat="43.16633" lon="-2.6493">
        <ele>166.7</ele>
        <time>2023-02-22T10:41:39.329Z</time>
    </trkpt>
    <trkpt lat="43.16627" lon="-2.6494">
        <ele>168.2</ele>
        <time>2023-02-22T10:41:55.652Z</time>
    </trkpt>
    <trkpt lat="43.16626" lon="-2.64942">
        <ele>168.5</ele>
        <time>2023-02-22T10:41:58.470Z</time>
    </trkpt>
    <trkpt lat="43.16624" lon="-2.64944">
        <ele>168.8</ele>
        <time>2023-02-22T10:42:02.657Z</time>
    </trkpt>
    <trkpt lat="43.16622" lon="-2.64945">
        <ele>168.9</ele>
        <time>2023-02-22T10:42:05.992Z</time>
    </trkpt>
    <trkpt lat="43.16621" lon="-2.64946">
        <ele>169.1</ele>
        <time>2023-02-22T10:42:07.816Z</time>
    </trkpt>
    <trkpt lat="43.1662" lon="-2.64947">
        <ele>169.3</ele>
        <time>2023-02-22T10:42:09.553Z</time>
    </trkpt>
    <trkpt lat="43.16619" lon="-2.64947">
        <ele>169.4</ele>
        <time>2023-02-22T10:42:10.902Z</time>
    </trkpt>
    <trkpt lat="43.16618" lon="-2.64947">
        <ele>169.4</ele>
        <time>2023-02-22T10:42:12.208Z</time>
    </trkpt>
    <trkpt lat="43.16616" lon="-2.64947">
        <ele>169.6</ele>
        <time>2023-02-22T10:42:14.751Z</time>
    </trkpt>
    <trkpt lat="43.16615" lon="-2.64947">
        <ele>169.7</ele>
        <time>2023-02-22T10:42:15.994Z</time>
    </trkpt>
    <trkpt lat="43.16614" lon="-2.64947">
        <ele>169.8</ele>
        <time>2023-02-22T10:42:17.214Z</time>
    </trkpt>
    <trkpt lat="43.16612" lon="-2.64946">
        <ele>169.9</ele>
        <time>2023-02-22T10:42:19.773Z</time>
    </trkpt>
    <trkpt lat="43.16611" lon="-2.64945">
        <ele>169.8</ele>
        <time>2023-02-22T10:42:21.241Z</time>
    </trkpt>
    <trkpt lat="43.1661" lon="-2.64943">
        <ele>169.6</ele>
        <time>2023-02-22T10:42:23.317Z</time>
    </trkpt>
    <trkpt lat="43.16609" lon="-2.6494">
        <ele>169.3</ele>
        <time>2023-02-22T10:42:26.114Z</time>
    </trkpt>
    <trkpt lat="43.16609" lon="-2.64937">
        <ele>168.9</ele>
        <time>2023-02-22T10:42:28.639Z</time>
    </trkpt>
    <trkpt lat="43.16609" lon="-2.64935">
        <ele>168.6</ele>
        <time>2023-02-22T10:42:30.311Z</time>
    </trkpt>
    <trkpt lat="43.16609" lon="-2.64934">
        <ele>168.5</ele>
        <time>2023-02-22T10:42:31.142Z</time>
    </trkpt>
    <trkpt lat="43.16609" lon="-2.64931">
        <ele>168.1</ele>
        <time>2023-02-22T10:42:33.624Z</time>
    </trkpt>
    <trkpt lat="43.1661" lon="-2.64928">
        <ele>167.6</ele>
        <time>2023-02-22T10:42:36.343Z</time>
    </trkpt>
    <trkpt lat="43.16612" lon="-2.64916">
        <ele>166.2</ele>
        <time>2023-02-22T10:42:46.458Z</time>
    </trkpt>
    <trkpt lat="43.16613" lon="-2.64914">
        <ele>165.9</ele>
        <time>2023-02-22T10:42:48.444Z</time>
    </trkpt>
    <trkpt lat="43.16612" lon="-2.64911">
        <ele>165.6</ele>
        <time>2023-02-22T10:42:51.139Z</time>
    </trkpt>
    <trkpt lat="43.16612" lon="-2.6491">
        <ele>165.6</ele>
        <time>2023-02-22T10:42:51.954Z</time>
    </trkpt>
    <trkpt lat="43.16612" lon="-2.64908">
        <ele>165.4</ele>
        <time>2023-02-22T10:42:53.582Z</time>
    </trkpt>
    <trkpt lat="43.16611" lon="-2.64904">
        <ele>165.0</ele>
        <time>2023-02-22T10:42:57.020Z</time>
    </trkpt>
    <trkpt lat="43.1661" lon="-2.64903">
        <ele>165.1</ele>
        <time>2023-02-22T10:42:58.398Z</time>
    </trkpt>
    <trkpt lat="43.16607" lon="-2.64901">
        <ele>165.3</ele>
        <time>2023-02-22T10:43:02.108Z</time>
    </trkpt>
    <trkpt lat="43.16605" lon="-2.64901">
        <ele>165.5</ele>
        <time>2023-02-22T10:43:04.330Z</time>
    </trkpt>
    <trkpt lat="43.16604" lon="-2.64901">
        <ele>165.7</ele>
        <time>2023-02-22T10:43:05.440Z</time>
    </trkpt>
    <trkpt lat="43.16602" lon="-2.64902">
        <ele>166.1</ele>
        <time>2023-02-22T10:43:07.802Z</time>
    </trkpt>
    <trkpt lat="43.166" lon="-2.64903">
        <ele>166.4</ele>
        <time>2023-02-22T10:43:10.163Z</time>
    </trkpt>
    <trkpt lat="43.16599" lon="-2.64905">
        <ele>166.7</ele>
        <time>2023-02-22T10:43:12.123Z</time>
    </trkpt>
    <trkpt lat="43.16598" lon="-2.64905">
        <ele>166.8</ele>
        <time>2023-02-22T10:43:13.231Z</time>
    </trkpt>
    <trkpt lat="43.16592" lon="-2.64916">
        <ele>168.4</ele>
        <time>2023-02-22T10:43:24.330Z</time>
    </trkpt>
    <trkpt lat="43.16588" lon="-2.64924">
        <ele>169.4</ele>
        <time>2023-02-22T10:43:32.350Z</time>
    </trkpt>
    <trkpt lat="43.16578" lon="-2.64945">
        <ele>172.7</ele>
        <time>2023-02-22T10:43:53.256Z</time>
    </trkpt>
    <trkpt lat="43.16576" lon="-2.64951">
        <ele>173.6</ele>
        <time>2023-02-22T10:43:59.211Z</time>
    </trkpt>
    <trkpt lat="43.16569" lon="-2.64966">
        <ele>175.2</ele>
        <time>2023-02-22T10:44:15.193Z</time>
    </trkpt>
    <trkpt lat="43.16564" lon="-2.64977">
        <ele>176.2</ele>
        <time>2023-02-22T10:44:27.355Z</time>
    </trkpt>
    <trkpt lat="43.1656" lon="-2.64987">
        <ele>177.3</ele>
        <time>2023-02-22T10:44:37.801Z</time>
    </trkpt>
    <trkpt lat="43.16558" lon="-2.64993">
        <ele>177.9</ele>
        <time>2023-02-22T10:44:43.722Z</time>
    </trkpt>
    <trkpt lat="43.16555" lon="-2.65004">
        <ele>178.8</ele>
        <time>2023-02-22T10:44:54.663Z</time>
    </trkpt>
    <trkpt lat="43.16554" lon="-2.65011">
        <ele>179.3</ele>
        <time>2023-02-22T10:45:01.157Z</time>
    </trkpt>
    <trkpt lat="43.16553" lon="-2.65019">
        <ele>180.0</ele>
        <time>2023-02-22T10:45:08.487Z</time>
    </trkpt>
    <trkpt lat="43.165452" lon="-2.650305">
        <ele>181.0</ele>
        <time>2023-02-22T10:45:24.849Z</time>
    </trkpt>
    <trkpt lat="43.165373" lon="-2.650416">
        <ele>181.9</ele>
        <time>2023-02-22T10:45:41.485Z</time>
    </trkpt>
    <trkpt lat="43.165299" lon="-2.650556">
        <ele>183.1</ele>
        <time>2023-02-22T10:46:01.897Z</time>
    </trkpt>
    <trkpt lat="43.165231" lon="-2.650673">
        <ele>184.6</ele>
        <time>2023-02-22T10:46:21.566Z</time>
    </trkpt>
    <trkpt lat="43.165168" lon="-2.650804">
        <ele>186.7</ele>
        <time>2023-02-22T10:46:44.325Z</time>
    </trkpt>
    <trkpt lat="43.16507" lon="-2.650954">
        <ele>190.1</ele>
        <time>2023-02-22T10:47:17.631Z</time>
    </trkpt>
    <trkpt lat="43.164937" lon="-2.651203">
        <ele>195.2</ele>
        <time>2023-02-22T10:48:13.452Z</time>
    </trkpt>
    <trkpt lat="43.164935" lon="-2.651206">
        <ele>195.2</ele>
        <time>2023-02-22T10:48:14.071Z</time>
    </trkpt>
    <trkpt lat="43.164849" lon="-2.651437">
        <ele>198.6</ele>
        <time>2023-02-22T10:48:58.699Z</time>
    </trkpt>
    <trkpt lat="43.164758" lon="-2.651551">
        <ele>200.9</ele>
        <time>2023-02-22T10:49:30.767Z</time>
    </trkpt>
    <trkpt lat="43.164657" lon="-2.651757">
        <ele>202.9</ele>
        <time>2023-02-22T10:50:20.270Z</time>
    </trkpt>
    <trkpt lat="43.164546" lon="-2.651828">
        <ele>203.6</ele>
        <time>2023-02-22T10:50:57.505Z</time>
    </trkpt>
    <trkpt lat="43.164441" lon="-2.651798">
        <ele>203.3</ele>
        <time>2023-02-22T10:51:23.333Z</time>
    </trkpt>
    <trkpt lat="43.164353" lon="-2.651951">
        <ele>205.0</ele>
        <time>2023-02-22T10:52:01.084Z</time>
    </trkpt>
    <trkpt lat="43.164273" lon="-2.652071">
        <ele>206.9</ele>
        <time>2023-02-22T10:52:35.399Z</time>
    </trkpt>
    <trkpt lat="43.164189" lon="-2.65224">
        <ele>210.0</ele>
        <time>2023-02-22T10:53:17.071Z</time>
    </trkpt>
    <trkpt lat="43.164168" lon="-2.652363">
        <ele>212.0</ele>
        <time>2023-02-22T10:53:45.886Z</time>
    </trkpt>
    <trkpt lat="43.164136" lon="-2.652581">
        <ele>215.7</ele>
        <time>2023-02-22T10:54:40.771Z</time>
    </trkpt>
    <trkpt lat="43.164113" lon="-2.65288">
        <ele>220.7</ele>
        <time>2023-02-22T10:55:58.866Z</time>
    </trkpt>
    <trkpt lat="43.164121" lon="-2.653129">
        <ele>223.9</ele>
        <time>2023-02-22T10:57:07.590Z</time>
    </trkpt>
    <trkpt lat="43.164185" lon="-2.653338">
        <ele>224.5</ele>
        <time>2023-02-22T10:58:15.993Z</time>
    </trkpt>
    <trkpt lat="43.164246" lon="-2.653491">
        <ele>224.6</ele>
        <time>2023-02-22T10:59:12.377Z</time>
    </trkpt>
    <trkpt lat="43.164282" lon="-2.65368">
        <ele>225.5</ele>
        <time>2023-02-22T11:00:21.780Z</time>
    </trkpt>
    <trkpt lat="43.164286" lon="-2.653688">
        <ele>225.6</ele>
        <time>2023-02-22T11:00:24.060Z</time>
    </trkpt>
    <trkpt lat="43.164355" lon="-2.653865">
        <ele>226.5</ele>
        <time>2023-02-22T11:01:14.026Z</time>
    </trkpt>
    <trkpt lat="43.164398" lon="-2.654012">
        <ele>228.5</ele>
        <time>2023-02-22T11:01:51.952Z</time>
    </trkpt>
    <trkpt lat="43.164399" lon="-2.654023">
        <ele>228.7</ele>
        <time>2023-02-22T11:01:54.000Z</time>
    </trkpt>
    <trkpt lat="43.164436" lon="-2.654263">
        <ele>232.9</ele>
        <time>2023-02-22T11:02:40.725Z</time>
    </trkpt>
    <trkpt lat="43.164363" lon="-2.654521">
        <ele>239.0</ele>
        <time>2023-02-22T11:03:38.450Z</time>
    </trkpt>
    <trkpt lat="43.164287" lon="-2.654675">
        <ele>243.2</ele>
        <time>2023-02-22T11:04:21.528Z</time>
    </trkpt>
    <trkpt lat="43.164185" lon="-2.654788">
        <ele>246.1</ele>
        <time>2023-02-22T11:05:05.051Z</time>
    </trkpt>
    <trkpt lat="43.164181" lon="-2.654796">
        <ele>246.3</ele>
        <time>2023-02-22T11:05:06.856Z</time>
    </trkpt>
    <trkpt lat="43.164107" lon="-2.654909">
        <ele>248.2</ele>
        <time>2023-02-22T11:05:38.326Z</time>
    </trkpt>
    <trkpt lat="43.164038" lon="-2.655045">
        <ele>249.6</ele>
        <time>2023-02-22T11:06:11.569Z</time>
    </trkpt>
    <trkpt lat="43.163976" lon="-2.655265">
        <ele>251.0</ele>
        <time>2023-02-22T11:07:01.362Z</time>
    </trkpt>
    <trkpt lat="43.163913" lon="-2.655409">
        <ele>251.6</ele>
        <time>2023-02-22T11:07:35.708Z</time>
    </trkpt>
    <trkpt lat="43.16391" lon="-2.655419">
        <ele>251.7</ele>
        <time>2023-02-22T11:07:37.505Z</time>
    </trkpt>
    <trkpt lat="43.163907" lon="-2.655436">
        <ele>251.8</ele>
        <time>2023-02-22T11:07:40.012Z</time>
    </trkpt>
    <trkpt lat="43.163849" lon="-2.655624">
        <ele>252.1</ele>
        <time>2023-02-22T11:08:08.431Z</time>
    </trkpt>
    <trkpt lat="43.163838" lon="-2.655671">
        <ele>252.1</ele>
        <time>2023-02-22T11:08:14.627Z</time>
    </trkpt>
    <trkpt lat="43.16384" lon="-2.6557">
        <ele>252.2</ele>
        <time>2023-02-22T11:08:18.001Z</time>
    </trkpt>
    <trkpt lat="43.16381" lon="-2.65574">
        <ele>252.0</ele>
        <time>2023-02-22T11:08:25.226Z</time>
    </trkpt>
    <trkpt lat="43.16375" lon="-2.65586">
        <ele>251.3</ele>
        <time>2023-02-22T11:08:42.183Z</time>
    </trkpt>
    <trkpt lat="43.1637" lon="-2.656">
        <ele>250.7</ele>
        <time>2023-02-22T11:09:00.182Z</time>
    </trkpt>
    <trkpt lat="43.16365" lon="-2.65618">
        <ele>250.7</ele>
        <time>2023-02-22T11:09:21.608Z</time>
    </trkpt>
    <trkpt lat="43.16358" lon="-2.65644">
        <ele>251.4</ele>
        <time>2023-02-22T11:09:51.104Z</time>
    </trkpt>
    <trkpt lat="43.16353" lon="-2.65656">
        <ele>251.8</ele>
        <time>2023-02-22T11:10:05.441Z</time>
    </trkpt>
    <trkpt lat="43.16344" lon="-2.6567">
        <ele>252.0</ele>
        <time>2023-02-22T11:10:24.339Z</time>
    </trkpt>
    <trkpt lat="43.1634" lon="-2.65678">
        <ele>252.1</ele>
        <time>2023-02-22T11:10:33.860Z</time>
    </trkpt>
    <trkpt lat="43.16333" lon="-2.6569">
        <ele>251.9</ele>
        <time>2023-02-22T11:10:50.178Z</time>
    </trkpt>
    <trkpt lat="43.16332" lon="-2.65692">
        <ele>251.9</ele>
        <time>2023-02-22T11:10:52.636Z</time>
    </trkpt>
    <trkpt lat="43.16329" lon="-2.65702">
        <ele>252.2</ele>
        <time>2023-02-22T11:11:03.292Z</time>
    </trkpt>
    <trkpt lat="43.16327" lon="-2.6571">
        <ele>252.4</ele>
        <time>2023-02-22T11:11:11.553Z</time>
    </trkpt>
    <trkpt lat="43.16326" lon="-2.65712">
        <ele>252.6</ele>
        <time>2023-02-22T11:11:13.848Z</time>
    </trkpt>
    <trkpt lat="43.16325" lon="-2.65717">
        <ele>252.9</ele>
        <time>2023-02-22T11:11:18.632Z</time>
    </trkpt>
    <trkpt lat="43.16323" lon="-2.65733">
        <ele>253.8</ele>
        <time>2023-02-22T11:11:33.422Z</time>
    </trkpt>
    <trkpt lat="43.16322" lon="-2.65737">
        <ele>254.2</ele>
        <time>2023-02-22T11:11:37.865Z</time>
    </trkpt>
    <trkpt lat="43.16319" lon="-2.65752">
        <ele>255.5</ele>
        <time>2023-02-22T11:11:53.501Z</time>
    </trkpt>
    <trkpt lat="43.16317" lon="-2.6576">
        <ele>256.6</ele>
        <time>2023-02-22T11:12:03.201Z</time>
    </trkpt>
    <trkpt lat="43.16311" lon="-2.65783">
        <ele>260.1</ele>
        <time>2023-02-22T11:12:32.085Z</time>
    </trkpt>
    <trkpt lat="43.16308" lon="-2.65795">
        <ele>261.8</ele>
        <time>2023-02-22T11:12:49.070Z</time>
    </trkpt>
    <trkpt lat="43.16304" lon="-2.65806">
        <ele>264.1</ele>
        <time>2023-02-22T11:13:06.816Z</time>
    </trkpt>
    <trkpt lat="43.1629" lon="-2.65852">
        <ele>270.4</ele>
        <time>2023-02-22T11:14:28.891Z</time>
    </trkpt>
    <trkpt lat="43.16283" lon="-2.65874">
        <ele>272.7</ele>
        <time>2023-02-22T11:15:11.452Z</time>
    </trkpt>
    <trkpt lat="43.16279" lon="-2.65887">
        <ele>273.8</ele>
        <time>2023-02-22T11:15:39.604Z</time>
    </trkpt>
    <trkpt lat="43.16275" lon="-2.65896">
        <ele>275.4</ele>
        <time>2023-02-22T11:16:03.308Z</time>
    </trkpt>
    <trkpt lat="43.16269" lon="-2.65911">
        <ele>278.2</ele>
        <time>2023-02-22T11:16:45.734Z</time>
    </trkpt>
    <trkpt lat="43.16261" lon="-2.65933">
        <ele>280.9</ele>
        <time>2023-02-22T11:17:49.746Z</time>
    </trkpt>
    <trkpt lat="43.1626" lon="-2.65936">
        <ele>281.1</ele>
        <time>2023-02-22T11:17:56.182Z</time>
    </trkpt>
    <trkpt lat="43.16252" lon="-2.65954">
        <ele>282.1</ele>
        <time>2023-02-22T11:18:32.100Z</time>
    </trkpt>
    <trkpt lat="43.1625" lon="-2.6596">
        <ele>282.2</ele>
        <time>2023-02-22T11:18:43.946Z</time>
    </trkpt>
    <trkpt lat="43.16236" lon="-2.65988">
        <ele>285.1</ele>
        <time>2023-02-22T11:19:46.474Z</time>
    </trkpt>
    <trkpt lat="43.16232" lon="-2.65995">
        <ele>286.0</ele>
        <time>2023-02-22T11:20:04.670Z</time>
    </trkpt>
    <trkpt lat="43.16231" lon="-2.65998">
        <ele>286.3</ele>
        <time>2023-02-22T11:20:10.154Z</time>
    </trkpt>
    <trkpt lat="43.16223" lon="-2.66009">
        <ele>287.7</ele>
        <time>2023-02-22T11:20:36.857Z</time>
    </trkpt>
    <trkpt lat="43.1622" lon="-2.66013">
        <ele>288.0</ele>
        <time>2023-02-22T11:20:45.288Z</time>
    </trkpt>
    <trkpt lat="43.16219" lon="-2.66014">
        <ele>288.1</ele>
        <time>2023-02-22T11:20:48.130Z</time>
    </trkpt>
    <trkpt lat="43.16213" lon="-2.66018">
        <ele>289.1</ele>
        <time>2023-02-22T11:21:01.321Z</time>
    </trkpt>
    <trkpt lat="43.16204" lon="-2.66023">
        <ele>290.5</ele>
        <time>2023-02-22T11:21:20.407Z</time>
    </trkpt>
    <trkpt lat="43.1619" lon="-2.66031">
        <ele>292.5</ele>
        <time>2023-02-22T11:21:51.568Z</time>
    </trkpt>
    <trkpt lat="43.16182" lon="-2.66037">
        <ele>293.3</ele>
        <time>2023-02-22T11:22:10.949Z</time>
    </trkpt>
    <trkpt lat="43.16173" lon="-2.66046">
        <ele>294.4</ele>
        <time>2023-02-22T11:22:35.167Z</time>
    </trkpt>
    <trkpt lat="43.16165" lon="-2.66056">
        <ele>296.0</ele>
        <time>2023-02-22T11:22:57.574Z</time>
    </trkpt>
    <trkpt lat="43.1616" lon="-2.66064">
        <ele>297.0</ele>
        <time>2023-02-22T11:23:12.830Z</time>
    </trkpt>
    <trkpt lat="43.16151" lon="-2.66077">
        <ele>296.8</ele>
        <time>2023-02-22T11:23:38.478Z</time>
    </trkpt>
    <trkpt lat="43.16138" lon="-2.66095">
        <ele>295.1</ele>
        <time>2023-02-22T11:24:19.357Z</time>
    </trkpt>
    <trkpt lat="43.16134" lon="-2.66098">
        <ele>295.2</ele>
        <time>2023-02-22T11:24:30.608Z</time>
    </trkpt>
    <trkpt lat="43.16129" lon="-2.66103">
        <ele>294.8</ele>
        <time>2023-02-22T11:24:45.819Z</time>
    </trkpt>
    <trkpt lat="43.16119" lon="-2.66106">
        <ele>296.1</ele>
        <time>2023-02-22T11:25:14.192Z</time>
    </trkpt>
    <trkpt lat="43.16108" lon="-2.66106">
        <ele>298.8</ele>
        <time>2023-02-22T11:25:41.214Z</time>
    </trkpt>
    <trkpt lat="43.16099" lon="-2.66104">
        <ele>301.7</ele>
        <time>2023-02-22T11:26:02.197Z</time>
    </trkpt>
    <trkpt lat="43.16087" lon="-2.66101">
        <ele>304.8</ele>
        <time>2023-02-22T11:26:32.217Z</time>
    </trkpt>
    <trkpt lat="43.16061" lon="-2.66094">
        <ele>309.9</ele>
        <time>2023-02-22T11:27:42.725Z</time>
    </trkpt>
    <trkpt lat="43.16049" lon="-2.66092">
        <ele>311.6</ele>
        <time>2023-02-22T11:28:14.114Z</time>
    </trkpt>
    <trkpt lat="43.16046" lon="-2.66092">
        <ele>312.1</ele>
        <time>2023-02-22T11:28:22.913Z</time>
    </trkpt>
    <trkpt lat="43.16039" lon="-2.66091">
        <ele>313.3</ele>
        <time>2023-02-22T11:28:46.114Z</time>
    </trkpt>
    <trkpt lat="43.160387" lon="-2.660913">
        <ele>313.3</ele>
        <time>2023-02-22T11:28:47.057Z</time>
    </trkpt>
    <trkpt lat="43.16031" lon="-2.66091">
        <ele>314.5</ele>
        <time>2023-02-22T11:29:06.022Z</time>
    </trkpt>
    <trkpt lat="43.16" lon="-2.66092">
        <ele>320.8</ele>
        <time>2023-02-22T11:30:29.025Z</time>
    </trkpt>
    <trkpt lat="43.15992" lon="-2.66092">
        <ele>322.4</ele>
        <time>2023-02-22T11:30:50.462Z</time>
    </trkpt>
    <trkpt lat="43.15974" lon="-2.66093">
        <ele>324.6</ele>
        <time>2023-02-22T11:31:30.371Z</time>
    </trkpt>
    <trkpt lat="43.15971" lon="-2.66093">
        <ele>324.6</ele>
        <time>2023-02-22T11:31:37.604Z</time>
    </trkpt>
    <trkpt lat="43.15957" lon="-2.66095">
        <ele>324.4</ele>
        <time>2023-02-22T11:32:07.424Z</time>
    </trkpt>
    <trkpt lat="43.15957" lon="-2.66096">
        <ele>324.4</ele>
        <time>2023-02-22T11:32:08.782Z</time>
    </trkpt>
    <trkpt lat="43.15948" lon="-2.66102">
        <ele>323.2</ele>
        <time>2023-02-22T11:32:28.391Z</time>
    </trkpt>
    <trkpt lat="43.15942" lon="-2.6611">
        <ele>322.1</ele>
        <time>2023-02-22T11:32:43.456Z</time>
    </trkpt>
    <trkpt lat="43.15938" lon="-2.66112">
        <ele>321.8</ele>
        <time>2023-02-22T11:32:50.459Z</time>
    </trkpt>
    <trkpt lat="43.15932" lon="-2.66116">
        <ele>321.3</ele>
        <time>2023-02-22T11:33:00.348Z</time>
    </trkpt>
    <trkpt lat="43.15927" lon="-2.6612">
        <ele>321.1</ele>
        <time>2023-02-22T11:33:08.227Z</time>
    </trkpt>
    <trkpt lat="43.15922" lon="-2.66123">
        <ele>321.0</ele>
        <time>2023-02-22T11:33:15.215Z</time>
    </trkpt>
    <trkpt lat="43.15918" lon="-2.66123">
        <ele>321.1</ele>
        <time>2023-02-22T11:33:20.088Z</time>
    </trkpt>
    <trkpt lat="43.15916" lon="-2.66123">
        <ele>321.1</ele>
        <time>2023-02-22T11:33:22.415Z</time>
    </trkpt>
    <trkpt lat="43.15914" lon="-2.66123">
        <ele>321.1</ele>
        <time>2023-02-22T11:33:24.723Z</time>
    </trkpt>
    <trkpt lat="43.15909" lon="-2.66123">
        <ele>321.2</ele>
        <time>2023-02-22T11:33:30.475Z</time>
    </trkpt>
    <trkpt lat="43.15898" lon="-2.66118">
        <ele>321.3</ele>
        <time>2023-02-22T11:33:43.666Z</time>
    </trkpt>
    <trkpt lat="43.15893" lon="-2.66116">
        <ele>321.3</ele>
        <time>2023-02-22T11:33:49.568Z</time>
    </trkpt>
    <trkpt lat="43.15881" lon="-2.66111">
        <ele>320.9</ele>
        <time>2023-02-22T11:34:03.668Z</time>
    </trkpt>
    <trkpt lat="43.15872" lon="-2.66107">
        <ele>320.5</ele>
        <time>2023-02-22T11:34:14.277Z</time>
    </trkpt>
    <trkpt lat="43.15865" lon="-2.66105">
        <ele>320.2</ele>
        <time>2023-02-22T11:34:22.619Z</time>
    </trkpt>
    <trkpt lat="43.1586" lon="-2.66104">
        <ele>320.0</ele>
        <time>2023-02-22T11:34:28.465Z</time>
    </trkpt>
    <trkpt lat="43.15854" lon="-2.66104">
        <ele>319.6</ele>
        <time>2023-02-22T11:34:35.656Z</time>
    </trkpt>
    <trkpt lat="43.15846" lon="-2.66106">
        <ele>319.3</ele>
        <time>2023-02-22T11:34:45.791Z</time>
    </trkpt>
    <trkpt lat="43.15841" lon="-2.66108">
        <ele>319.1</ele>
        <time>2023-02-22T11:34:52.174Z</time>
    </trkpt>
    <trkpt lat="43.15834" lon="-2.66114">
        <ele>319.5</ele>
        <time>2023-02-22T11:35:03.407Z</time>
    </trkpt>
    <trkpt lat="43.15831" lon="-2.66118">
        <ele>319.9</ele>
        <time>2023-02-22T11:35:08.994Z</time>
    </trkpt>
    <trkpt lat="43.15828" lon="-2.66123">
        <ele>320.4</ele>
        <time>2023-02-22T11:35:15.991Z</time>
    </trkpt>
    <trkpt lat="43.1582" lon="-2.66137">
        <ele>322.3</ele>
        <time>2023-02-22T11:35:35.788Z</time>
    </trkpt>
    <trkpt lat="43.15803" lon="-2.66166">
        <ele>326.8</ele>
        <time>2023-02-22T11:36:20.866Z</time>
    </trkpt>
    <trkpt lat="43.15797" lon="-2.66176">
        <ele>328.7</ele>
        <time>2023-02-22T11:36:38.161Z</time>
    </trkpt>
    <trkpt lat="43.15796" lon="-2.66177">
        <ele>328.9</ele>
        <time>2023-02-22T11:36:40.751Z</time>
    </trkpt>
    <trkpt lat="43.15792" lon="-2.66185">
        <ele>330.5</ele>
        <time>2023-02-22T11:36:56.679Z</time>
    </trkpt>
    <trkpt lat="43.15784" lon="-2.66195">
        <ele>332.6</ele>
        <time>2023-02-22T11:37:23.722Z</time>
    </trkpt>
    <trkpt lat="43.15779" lon="-2.66199">
        <ele>333.4</ele>
        <time>2023-02-22T11:37:40.010Z</time>
    </trkpt>
    <trkpt lat="43.15773" lon="-2.66203">
        <ele>334.4</ele>
        <time>2023-02-22T11:37:59.008Z</time>
    </trkpt>
    <trkpt lat="43.15768" lon="-2.66206">
        <ele>335.2</ele>
        <time>2023-02-22T11:38:16.497Z</time>
    </trkpt>
    <trkpt lat="43.15754" lon="-2.66212">
        <ele>337.0</ele>
        <time>2023-02-22T11:39:06.717Z</time>
    </trkpt>
    <trkpt lat="43.15742" lon="-2.66216">
        <ele>338.6</ele>
        <time>2023-02-22T11:39:49.547Z</time>
    </trkpt>
    <trkpt lat="43.15734" lon="-2.66218">
        <ele>339.7</ele>
        <time>2023-02-22T11:40:19.802Z</time>
    </trkpt>
    <trkpt lat="43.15729" lon="-2.6622">
        <ele>340.6</ele>
        <time>2023-02-22T11:40:39.315Z</time>
    </trkpt>
    <trkpt lat="43.15725" lon="-2.66223">
        <ele>341.7</ele>
        <time>2023-02-22T11:40:56.874Z</time>
    </trkpt>
    <trkpt lat="43.15721" lon="-2.66225">
        <ele>342.6</ele>
        <time>2023-02-22T11:41:13.993Z</time>
    </trkpt>
    <trkpt lat="43.15716" lon="-2.66231">
        <ele>344.2</ele>
        <time>2023-02-22T11:41:43.531Z</time>
    </trkpt>
    <trkpt lat="43.15708" lon="-2.66242">
        <ele>346.3</ele>
        <time>2023-02-22T11:42:37.702Z</time>
    </trkpt>
    <trkpt lat="43.15706" lon="-2.66246">
        <ele>347.1</ele>
        <time>2023-02-22T11:42:48.987Z</time>
    </trkpt>
    <trkpt lat="43.15699" lon="-2.66256">
        <ele>349.0</ele>
        <time>2023-02-22T11:43:23.631Z</time>
    </trkpt>
    <trkpt lat="43.15684" lon="-2.66278">
        <ele>352.0</ele>
        <time>2023-02-22T11:44:36.550Z</time>
    </trkpt>
    <trkpt lat="43.15681" lon="-2.66281">
        <ele>352.6</ele>
        <time>2023-02-22T11:44:46.029Z</time>
    </trkpt>
    <trkpt lat="43.15678" lon="-2.66285">
        <ele>353.5</ele>
        <time>2023-02-22T11:44:57.535Z</time>
    </trkpt>
    <trkpt lat="43.15671" lon="-2.66292">
        <ele>355.1</ele>
        <time>2023-02-22T11:45:22.587Z</time>
    </trkpt>
    <trkpt lat="43.15666" lon="-2.66296">
        <ele>356.1</ele>
        <time>2023-02-22T11:45:39.220Z</time>
    </trkpt>
    <trkpt lat="43.15664" lon="-2.66298">
        <ele>356.6</ele>
        <time>2023-02-22T11:45:47.221Z</time>
    </trkpt>
    <trkpt lat="43.15657" lon="-2.66301">
        <ele>357.5</ele>
        <time>2023-02-22T11:46:12.662Z</time>
    </trkpt>
    <trkpt lat="43.15649" lon="-2.66302">
        <ele>357.9</ele>
        <time>2023-02-22T11:46:43.726Z</time>
    </trkpt>
    <trkpt lat="43.15647" lon="-2.66302">
        <ele>357.9</ele>
        <time>2023-02-22T11:46:49.352Z</time>
    </trkpt>
    <trkpt lat="43.15633" lon="-2.66304">
        <ele>357.9</ele>
        <time>2023-02-22T11:47:32.103Z</time>
    </trkpt>
    <trkpt lat="43.15631" lon="-2.66304">
        <ele>357.9</ele>
        <time>2023-02-22T11:47:36.916Z</time>
    </trkpt>
    <trkpt lat="43.15621" lon="-2.66305">
        <ele>358.3</ele>
        <time>2023-02-22T11:48:02.310Z</time>
    </trkpt>
    <trkpt lat="43.15611" lon="-2.66307">
        <ele>359.6</ele>
        <time>2023-02-22T11:48:29.825Z</time>
    </trkpt>
    <trkpt lat="43.15599" lon="-2.66308">
        <ele>361.0</ele>
        <time>2023-02-22T11:48:56.669Z</time>
    </trkpt>
    <trkpt lat="43.15586" lon="-2.66312">
        <ele>364.0</ele>
        <time>2023-02-22T11:49:29.934Z</time>
    </trkpt>
    <trkpt lat="43.15581" lon="-2.66317">
        <ele>365.9</ele>
        <time>2023-02-22T11:49:45.179Z</time>
    </trkpt>
    <trkpt lat="43.15575" lon="-2.66324">
        <ele>368.1</ele>
        <time>2023-02-22T11:50:05.886Z</time>
    </trkpt>
    <trkpt lat="43.1557" lon="-2.66341">
        <ele>371.3</ele>
        <time>2023-02-22T11:50:43.430Z</time>
    </trkpt>
    <trkpt lat="43.15564" lon="-2.66366">
        <ele>375.5</ele>
        <time>2023-02-22T11:51:41.231Z</time>
    </trkpt>
    <trkpt lat="43.15562" lon="-2.66369">
        <ele>375.9</ele>
        <time>2023-02-22T11:51:48.323Z</time>
    </trkpt>
    <trkpt lat="43.15555" lon="-2.66392">
        <ele>378.9</ele>
        <time>2023-02-22T11:52:36.287Z</time>
    </trkpt>
    <trkpt lat="43.155435" lon="-2.664189">
        <ele>382.5</ele>
        <time>2023-02-22T11:53:42.839Z</time>
    </trkpt>
    <trkpt lat="43.155366" lon="-2.664502">
        <ele>387.0</ele>
        <time>2023-02-22T11:55:01.288Z</time>
    </trkpt>
    <trkpt lat="43.155308" lon="-2.664766">
        <ele>391.0</ele>
        <time>2023-02-22T11:56:11.454Z</time>
    </trkpt>
    <trkpt lat="43.155244" lon="-2.665127">
        <ele>394.6</ele>
        <time>2023-02-22T11:57:56.818Z</time>
    </trkpt>
    <trkpt lat="43.155188" lon="-2.665479">
        <ele>397.7</ele>
        <time>2023-02-22T11:59:39.546Z</time>
    </trkpt>
    <trkpt lat="43.155148" lon="-2.665785">
        <ele>398.8</ele>
        <time>2023-02-22T12:01:13.413Z</time>
    </trkpt>
    <trkpt lat="43.155113" lon="-2.666124">
        <ele>399.3</ele>
        <time>2023-02-22T12:02:42.373Z</time>
    </trkpt>
    <trkpt lat="43.155078" lon="-2.666349">
        <ele>399.9</ele>
        <time>2023-02-22T12:03:30.236Z</time>
    </trkpt>
    <trkpt lat="43.155047" lon="-2.666537">
        <ele>399.8</ele>
        <time>2023-02-22T12:04:08.600Z</time>
    </trkpt>
    <trkpt lat="43.155004" lon="-2.666658">
        <ele>398.8</ele>
        <time>2023-02-22T12:04:30.556Z</time>
    </trkpt>
    <trkpt lat="43.154936" lon="-2.666704">
        <ele>398.9</ele>
        <time>2023-02-22T12:04:47.012Z</time>
    </trkpt>
    <trkpt lat="43.154836" lon="-2.666655">
        <ele>401.0</ele>
        <time>2023-02-22T12:05:11.495Z</time>
    </trkpt>
    <trkpt lat="43.154697" lon="-2.66654">
        <ele>404.5</ele>
        <time>2023-02-22T12:05:48.829Z</time>
    </trkpt>
    <trkpt lat="43.154582" lon="-2.666476">
        <ele>406.9</ele>
        <time>2023-02-22T12:06:18.420Z</time>
    </trkpt>
    <trkpt lat="43.154453" lon="-2.666364">
        <ele>410.3</ele>
        <time>2023-02-22T12:06:54.910Z</time>
    </trkpt>
    <trkpt lat="43.154316" lon="-2.666273">
        <ele>413.6</ele>
        <time>2023-02-22T12:07:34.083Z</time>
    </trkpt>
    <trkpt lat="43.154185" lon="-2.6662">
        <ele>416.5</ele>
        <time>2023-02-22T12:08:14.998Z</time>
    </trkpt>
    <trkpt lat="43.154036" lon="-2.666124">
        <ele>420.0</ele>
        <time>2023-02-22T12:09:06.726Z</time>
    </trkpt>
    <trkpt lat="43.153895" lon="-2.666066">
        <ele>423.4</ele>
        <time>2023-02-22T12:09:54.294Z</time>
    </trkpt>
    <trkpt lat="43.153808" lon="-2.666008">
        <ele>425.6</ele>
        <time>2023-02-22T12:10:29.267Z</time>
    </trkpt>
    <trkpt lat="43.153687" lon="-2.665951">
        <ele>428.6</ele>
        <time>2023-02-22T12:11:19.332Z</time>
    </trkpt>
    <trkpt lat="43.153549" lon="-2.665835">
        <ele>432.2</ele>
        <time>2023-02-22T12:12:19.394Z</time>
    </trkpt>
    <trkpt lat="43.153406" lon="-2.665693">
        <ele>434.3</ele>
        <time>2023-02-22T12:13:19.351Z</time>
    </trkpt>
    <trkpt lat="43.153264" lon="-2.665529">
        <ele>436.1</ele>
        <time>2023-02-22T12:14:16.073Z</time>
    </trkpt>
    <trkpt lat="43.153122" lon="-2.6654">
        <ele>437.5</ele>
        <time>2023-02-22T12:15:07.434Z</time>
    </trkpt>
    <trkpt lat="43.153058" lon="-2.665412">
        <ele>438.3</ele>
        <time>2023-02-22T12:15:23.074Z</time>
    </trkpt>
    <trkpt lat="43.15302" lon="-2.665573">
        <ele>439.0</ele>
        <time>2023-02-22T12:15:48.445Z</time>
    </trkpt>
    <trkpt lat="43.152994" lon="-2.665733">
        <ele>439.2</ele>
        <time>2023-02-22T12:16:10.140Z</time>
    </trkpt>
    <trkpt lat="43.152961" lon="-2.665915">
        <ele>439.3</ele>
        <time>2023-02-22T12:16:32.784Z</time>
    </trkpt>
    <trkpt lat="43.152943" lon="-2.666049">
        <ele>439.1</ele>
        <time>2023-02-22T12:16:48.095Z</time>
    </trkpt>
    <trkpt lat="43.152899" lon="-2.666167">
        <ele>438.9</ele>
        <time>2023-02-22T12:17:03.103Z</time>
    </trkpt>
    <trkpt lat="43.15285" lon="-2.666201">
        <ele>438.8</ele>
        <time>2023-02-22T12:17:11.141Z</time>
    </trkpt>
    <trkpt lat="43.152764" lon="-2.666204">
        <ele>439.0</ele>
        <time>2023-02-22T12:17:23.616Z</time>
    </trkpt>
    <trkpt lat="43.152624" lon="-2.666179">
        <ele>439.2</ele>
        <time>2023-02-22T12:17:43.061Z</time>
    </trkpt>
    <trkpt lat="43.152502" lon="-2.666131">
        <ele>439.2</ele>
        <time>2023-02-22T12:17:59.839Z</time>
    </trkpt>
    <trkpt lat="43.152332" lon="-2.666085">
        <ele>438.1</ele>
        <time>2023-02-22T12:18:20.517Z</time>
    </trkpt>
    <trkpt lat="43.15225" lon="-2.666085">
        <ele>437.1</ele>
        <time>2023-02-22T12:18:30.041Z</time>
    </trkpt>
    <trkpt lat="43.15214" lon="-2.666042">
        <ele>436.3</ele>
        <time>2023-02-22T12:18:42.560Z</time>
    </trkpt>
    <trkpt lat="43.152034" lon="-2.666009">
        <ele>435.4</ele>
        <time>2023-02-22T12:18:53.208Z</time>
    </trkpt>
    <trkpt lat="43.15195" lon="-2.665966">
        <ele>434.9</ele>
        <time>2023-02-22T12:19:01.520Z</time>
    </trkpt>
    <trkpt lat="43.151883" lon="-2.665899">
        <ele>434.7</ele>
        <time>2023-02-22T12:19:08.821Z</time>
    </trkpt>
    <trkpt lat="43.1517889901771" lon="-2.665789108748307">
        <ele>434.1</ele>
        <time>2023-02-22T12:19:19.806Z</time>
    </trkpt>
    <trkpt lat="43.15172774820321" lon="-2.665710406779645">
        <ele>433.6</ele>
        <time>2023-02-22T12:19:27.137Z</time>
    </trkpt>
    <trkpt lat="43.15167799007092" lon="-2.665568745075768">
        <ele>432.9</ele>
        <time>2023-02-22T12:19:36.434Z</time>
    </trkpt>
    <trkpt lat="43.151649283365" lon="-2.6654874209307">
        <ele>432.6</ele>
        <time>2023-02-22T12:19:41.307Z</time>
    </trkpt>
    <trkpt lat="43.15163014650047" lon="-2.665345760283917">
        <ele>432.5</ele>
        <time>2023-02-22T12:19:48.077Z</time>
    </trkpt>
    <trkpt lat="43.1515899575345" lon="-2.665156879456129">
        <ele>432.3</ele>
        <time>2023-02-22T12:19:56.457Z</time>
    </trkpt>
    <trkpt lat="43.15164309365797" lon="-2.664900893062636">
        <ele>433.6</ele>
        <time>2023-02-22T12:20:06.642Z</time>
    </trkpt>
    <trkpt lat="43.1516605277981" lon="-2.664748827324185">
        <ele>432.7</ele>
        <time>2023-02-22T12:20:12.312Z</time>
    </trkpt>
    <trkpt lat="43.15166369809061" lon="-2.664607623306336">
        <ele>431.6</ele>
        <time>2023-02-22T12:20:17.223Z</time>
    </trkpt>
    <trkpt lat="43.15162132314159" lon="-2.6644264764896">
        <ele>427.6</ele>
        <time>2023-02-22T12:20:24.129Z</time>
    </trkpt>
    <trkpt lat="43.15160598211888" lon="-2.664316366098954">
        <ele>425.0</ele>
        <time>2023-02-22T12:20:27.949Z</time>
    </trkpt>
    <trkpt lat="43.1515870299632" lon="-2.664233473718095">
        <ele>423.0</ele>
        <time>2023-02-22T12:20:30.964Z</time>
    </trkpt>
    <trkpt lat="43.15159396557164" lon="-2.664152288430342">
        <ele>421.3</ele>
        <time>2023-02-22T12:20:34.066Z</time>
    </trkpt>
    <trkpt lat="43.15158921102745" lon="-2.664084944908853">
        <ele>419.7</ele>
        <time>2023-02-22T12:20:36.863Z</time>
    </trkpt>
    <trkpt lat="43.15158071657131" lon="-2.664040472429454">
        <ele>418.6</ele>
        <time>2023-02-22T12:20:38.913Z</time>
    </trkpt>
    <trkpt lat="43.15158921088978" lon="-2.663958947387127">
        <ele>417.0</ele>
        <time>2023-02-22T12:20:42.178Z</time>
    </trkpt>
    <trkpt lat="43.15159871984499" lon="-2.663900293355256">
        <ele>415.8</ele>
        <time>2023-02-22T12:20:44.827Z</time>
    </trkpt>
    <trkpt lat="43.15159696686241" lon="-2.663874690119374">
        <ele>415.3</ele>
        <time>2023-02-22T12:20:46.043Z</time>
    </trkpt>
    <trkpt lat="43.15160822860128" lon="-2.663791674841822">
        <ele>413.8</ele>
        <time>2023-02-22T12:20:49.538Z</time>
    </trkpt>
    <trkpt lat="43.15159877502499" lon="-2.663733650761052">
        <ele>412.6</ele>
        <time>2023-02-22T12:20:51.903Z</time>
    </trkpt>
    <trkpt lat="43.15160822807169" lon="-2.663656987996036">
        <ele>411.1</ele>
        <time>2023-02-22T12:20:55.273Z</time>
    </trkpt>
    <trkpt lat="43.15163833963243" lon="-2.6635614034846">
        <ele>409.4</ele>
        <time>2023-02-22T12:20:59.424Z</time>
    </trkpt>
    <trkpt lat="43.15164784799706" lon="-2.663446267803171">
        <ele>407.2</ele>
        <time>2023-02-22T12:21:03.954Z</time>
    </trkpt>
    <trkpt lat="43.15166211095771" lon="-2.663355028081154">
        <ele>405.3</ele>
        <time>2023-02-22T12:21:07.306Z</time>
    </trkpt>
    <trkpt lat="43.151666864734" lon="-2.663257271315791">
        <ele>403.4</ele>
        <time>2023-02-22T12:21:10.615Z</time>
    </trkpt>
    <trkpt lat="43.15165577031549" lon="-2.663198617481741">
        <ele>402.4</ele>
        <time>2023-02-22T12:21:12.856Z</time>
    </trkpt>
    <trkpt lat="43.15164467535223" lon="-2.66308565431541">
        <ele>400.6</ele>
        <time>2023-02-22T12:21:16.927Z</time>
    </trkpt>
    <trkpt lat="43.15165101400293" lon="-2.663013965880612">
        <ele>399.4</ele>
        <time>2023-02-22T12:21:19.335Z</time>
    </trkpt>
    <trkpt lat="43.15167161596955" lon="-2.662920553359803">
        <ele>397.8</ele>
        <time>2023-02-22T12:21:22.640Z</time>
    </trkpt>
    <trkpt lat="43.15168112357052" lon="-2.662796727666534">
        <ele>395.0</ele>
        <time>2023-02-22T12:21:27.225Z</time>
    </trkpt>
    <trkpt lat="43.15167636771537" lon="-2.662694625884365">
        <ele>392.6</ele>
        <time>2023-02-22T12:21:30.835Z</time>
    </trkpt>
    <trkpt lat="43.15166368781387" lon="-2.662612075729154">
        <ele>390.7</ele>
        <time>2023-02-22T12:21:34.035Z</time>
    </trkpt>
    <trkpt lat="43.15162406555974" lon="-2.662538215695305">
        <ele>388.9</ele>
        <time>2023-02-22T12:21:37.258Z</time>
    </trkpt>
    <trkpt lat="43.1515933786235" lon="-2.662492215492648">
        <ele>388.0</ele>
        <time>2023-02-22T12:21:39.411Z</time>
    </trkpt>
    <trkpt lat="43.151548" lon="-2.662424">
        <ele>386.4</ele>
        <time>2023-02-22T12:21:42.414Z</time>
    </trkpt>
    <trkpt lat="43.151477" lon="-2.662289">
        <ele>383.4</ele>
        <time>2023-02-22T12:21:47.644Z</time>
    </trkpt>
    <trkpt lat="43.151504" lon="-2.662063">
        <ele>381.3</ele>
        <time>2023-02-22T12:21:54.695Z</time>
    </trkpt>
    <trkpt lat="43.151479" lon="-2.661683">
        <ele>377.8</ele>
        <time>2023-02-22T12:22:07.356Z</time>
    </trkpt>
    <trkpt lat="43.151449" lon="-2.66112">
        <ele>373.8</ele>
        <time>2023-02-22T12:22:26.145Z</time>
    </trkpt>
    <trkpt lat="43.151351" lon="-2.660795">
        <ele>372.8</ele>
        <time>2023-02-22T12:22:37.423Z</time>
    </trkpt>
    <trkpt lat="43.151315" lon="-2.660561">
        <ele>372.1</ele>
        <time>2023-02-22T12:22:45.651Z</time>
    </trkpt>
    <trkpt lat="43.151246" lon="-2.660287">
        <ele>370.2</ele>
        <time>2023-02-22T12:22:55.775Z</time>
    </trkpt>
    <trkpt lat="43.151237" lon="-2.659977">
        <ele>369.7</ele>
        <time>2023-02-22T12:23:07.338Z</time>
    </trkpt>
    <trkpt lat="43.151207" lon="-2.659752">
        <ele>368.9</ele>
        <time>2023-02-22T12:23:15.823Z</time>
    </trkpt>
    <trkpt lat="43.151175" lon="-2.659528">
        <ele>367.8</ele>
        <time>2023-02-22T12:23:24.265Z</time>
    </trkpt>
    <trkpt lat="43.151066" lon="-2.65922">
        <ele>365.6</ele>
        <time>2023-02-22T12:23:37.143Z</time>
    </trkpt>
    <trkpt lat="43.151013" lon="-2.659047">
        <ele>364.2</ele>
        <time>2023-02-22T12:23:44.486Z</time>
    </trkpt>
    <trkpt lat="43.150902" lon="-2.658754">
        <ele>362.1</ele>
        <time>2023-02-22T12:23:56.735Z</time>
    </trkpt>
    <trkpt lat="43.15084" lon="-2.658479">
        <ele>361.2</ele>
        <time>2023-02-22T12:24:07.928Z</time>
    </trkpt>
    <trkpt lat="43.150761" lon="-2.65816">
        <ele>357.7</ele>
        <time>2023-02-22T12:24:21.215Z</time>
    </trkpt>
    <trkpt lat="43.150792" lon="-2.657824">
        <ele>355.9</ele>
        <time>2023-02-22T12:24:35.065Z</time>
    </trkpt>
    <trkpt lat="43.15083" lon="-2.657538">
        <ele>355.9</ele>
        <time>2023-02-22T12:24:47.965Z</time>
    </trkpt>
    <trkpt lat="43.150866" lon="-2.657241">
        <ele>357.1</ele>
        <time>2023-02-22T12:25:02.218Z</time>
    </trkpt>
    <trkpt lat="43.150903" lon="-2.65698">
        <ele>358.4</ele>
        <time>2023-02-22T12:25:15.793Z</time>
    </trkpt>
    <trkpt lat="43.151025" lon="-2.656748">
        <ele>361.3</ele>
        <time>2023-02-22T12:25:31.530Z</time>
    </trkpt>
    <trkpt lat="43.151144" lon="-2.656529">
        <ele>362.4</ele>
        <time>2023-02-22T12:25:47.831Z</time>
    </trkpt>
    <trkpt lat="43.151258" lon="-2.656365">
        <ele>363.1</ele>
        <time>2023-02-22T12:26:02.263Z</time>
    </trkpt>
    <trkpt lat="43.151359" lon="-2.655989">
        <ele>364.1</ele>
        <time>2023-02-22T12:26:29.306Z</time>
    </trkpt>
    <trkpt lat="43.151331" lon="-2.655709">
        <ele>364.5</ele>
        <time>2023-02-22T12:26:49.244Z</time>
    </trkpt>
    <trkpt lat="43.151304" lon="-2.655365">
        <ele>365.0</ele>
        <time>2023-02-22T12:27:14.268Z</time>
    </trkpt>
    <trkpt lat="43.15125" lon="-2.654792">
        <ele>366.3</ele>
        <time>2023-02-22T12:27:57.736Z</time>
    </trkpt>
    <trkpt lat="43.151271" lon="-2.653888">
        <ele>368.8</ele>
        <time>2023-02-22T12:29:11.098Z</time>
    </trkpt>
    <trkpt lat="43.151347" lon="-2.653468">
        <ele>369.2</ele>
        <time>2023-02-22T12:29:48.110Z</time>
    </trkpt>
    <trkpt lat="43.151496" lon="-2.653137">
        <ele>368.2</ele>
        <time>2023-02-22T12:30:21.776Z</time>
    </trkpt>
    <trkpt lat="43.151608" lon="-2.653049">
        <ele>368.9</ele>
        <time>2023-02-22T12:30:37.638Z</time>
    </trkpt>
    <trkpt lat="43.151868" lon="-2.65319">
        <ele>374.3</ele>
        <time>2023-02-22T12:31:11.526Z</time>
    </trkpt>
    <trkpt lat="43.152035" lon="-2.653306">
        <ele>376.8</ele>
        <time>2023-02-22T12:31:31.686Z</time>
    </trkpt>
    <trkpt lat="43.152209" lon="-2.6534686">
        <ele>378.9</ele>
        <time>2023-02-22T12:31:53.717Z</time>
    </trkpt>
    <trkpt lat="43.1523164" lon="-2.6534916">
        <ele>379.0</ele>
        <time>2023-02-22T12:32:05.347Z</time>
    </trkpt>
    <trkpt lat="43.1524373" lon="-2.6534815">
        <ele>378.7</ele>
        <time>2023-02-22T12:32:16.255Z</time>
    </trkpt>
    <trkpt lat="43.152554" lon="-2.6534209">
        <ele>376.9</ele>
        <time>2023-02-22T12:32:27.920Z</time>
    </trkpt>
    <trkpt lat="43.15266" lon="-2.6532875">
        <ele>373.5</ele>
        <time>2023-02-22T12:32:38.750Z</time>
    </trkpt>
    <trkpt lat="43.1527827" lon="-2.653208">
        <ele>369.5</ele>
        <time>2023-02-22T12:32:47.332Z</time>
    </trkpt>
    <trkpt lat="43.1529094" lon="-2.6531848">
        <ele>366.1</ele>
        <time>2023-02-22T12:32:54.517Z</time>
    </trkpt>
    <trkpt lat="43.153034" lon="-2.653222">
        <ele>363.1</ele>
        <time>2023-02-22T12:33:01.292Z</time>
    </trkpt>
    <trkpt lat="43.1532483" lon="-2.6530781">
        <ele>356.3</ele>
        <time>2023-02-22T12:33:14.898Z</time>
    </trkpt>
    <trkpt lat="43.1534666" lon="-2.6529852">
        <ele>351.7</ele>
        <time>2023-02-22T12:33:27.228Z</time>
    </trkpt>
    <trkpt lat="43.1536058" lon="-2.6530491">
        <ele>350.4</ele>
        <time>2023-02-22T12:33:34.794Z</time>
    </trkpt>
    <trkpt lat="43.1537779" lon="-2.6530168">
        <ele>347.5</ele>
        <time>2023-02-22T12:33:43.183Z</time>
    </trkpt>
    <trkpt lat="43.1538913" lon="-2.6529763">
        <ele>345.5</ele>
        <time>2023-02-22T12:33:48.501Z</time>
    </trkpt>
    <trkpt lat="43.1539193" lon="-2.6529345">
        <ele>344.8</ele>
        <time>2023-02-22T12:33:50.609Z</time>
    </trkpt>
    <trkpt lat="43.1540244" lon="-2.6528918">
        <ele>342.9</ele>
        <time>2023-02-22T12:33:55.791Z</time>
    </trkpt>
    <trkpt lat="43.1540733" lon="-2.6529253">
        <ele>342.3</ele>
        <time>2023-02-22T12:33:58.617Z</time>
    </trkpt>
    <trkpt lat="43.1541535" lon="-2.6528729">
        <ele>340.9</ele>
        <time>2023-02-22T12:34:02.862Z</time>
    </trkpt>
    <trkpt lat="43.1543438" lon="-2.6526061">
        <ele>337.1</ele>
        <time>2023-02-22T12:34:15.404Z</time>
    </trkpt>
    <trkpt lat="43.1544566" lon="-2.6522979">
        <ele>331.1</ele>
        <time>2023-02-22T12:34:26.418Z</time>
    </trkpt>
    <trkpt lat="43.154552" lon="-2.652017">
        <ele>324.2</ele>
        <time>2023-02-22T12:34:37.199Z</time>
    </trkpt>
    <trkpt lat="43.1546269" lon="-2.6518211">
        <ele>319.1</ele>
        <time>2023-02-22T12:34:45.815Z</time>
    </trkpt>
    <trkpt lat="43.1546867" lon="-2.6516215">
        <ele>314.9</ele>
        <time>2023-02-22T12:34:53.529Z</time>
    </trkpt>
    <trkpt lat="43.1547202" lon="-2.6512743">
        <ele>311.7</ele>
        <time>2023-02-22T12:35:05.390Z</time>
    </trkpt>
    <trkpt lat="43.1547593" lon="-2.6509301">
        <ele>308.6</ele>
        <time>2023-02-22T12:35:17.802Z</time>
    </trkpt>
    <trkpt lat="43.1549334" lon="-2.6505705">
        <ele>303.7</ele>
        <time>2023-02-22T12:35:33.257Z</time>
    </trkpt>
    <trkpt lat="43.15506" lon="-2.650313">
        <ele>302.1</ele>
        <time>2023-02-22T12:35:45.045Z</time>
    </trkpt>
    <trkpt lat="43.1551961" lon="-2.6501253">
        <ele>301.6</ele>
        <time>2023-02-22T12:35:55.657Z</time>
    </trkpt>
    <trkpt lat="43.1552473" lon="-2.6500212">
        <ele>300.9</ele>
        <time>2023-02-22T12:36:01.101Z</time>
    </trkpt>
    <trkpt lat="43.15533185158995" lon="-2.650051109179963">
        <ele>301.8</ele>
        <time>2023-02-22T12:36:06.624Z</time>
    </trkpt>
    <trkpt lat="43.15542877001918" lon="-2.650217133172856">
        <ele>304.5</ele>
        <time>2023-02-22T12:36:16.939Z</time>
    </trkpt>
    <trkpt lat="43.15552165742291" lon="-2.650456493226424">
        <ele>306.8</ele>
        <time>2023-02-22T12:36:30.242Z</time>
    </trkpt>
    <trkpt lat="43.15562059748294" lon="-2.650662644442852">
        <ele>307.3</ele>
        <time>2023-02-22T12:36:42.670Z</time>
    </trkpt>
    <trkpt lat="43.15568924772505" lon="-2.650785780466749">
        <ele>306.7</ele>
        <time>2023-02-22T12:36:49.845Z</time>
    </trkpt>
    <trkpt lat="43.15576974939138" lon="-2.650939081966034">
        <ele>305.4</ele>
        <time>2023-02-22T12:36:58.656Z</time>
    </trkpt>
    <trkpt lat="43.15582729722024" lon="-2.65107605732393">
        <ele>303.3</ele>
        <time>2023-02-22T12:37:06.297Z</time>
    </trkpt>
    <trkpt lat="43.15588484442478" lon="-2.651207498248315">
        <ele>301.0</ele>
        <time>2023-02-22T12:37:14.121Z</time>
    </trkpt>
    <trkpt lat="43.15592624034313" lon="-2.651329256392931">
        <ele>299.1</ele>
        <time>2023-02-22T12:37:21.070Z</time>
    </trkpt>
    <trkpt lat="43.15598862467623" lon="-2.651473413262223">
        <ele>296.6</ele>
        <time>2023-02-22T12:37:30.233Z</time>
    </trkpt>
    <trkpt lat="43.15604718040342" lon="-2.651599320107023">
        <ele>294.5</ele>
        <time>2023-02-22T12:37:39.127Z</time>
    </trkpt>
    <trkpt lat="43.15612895207461" lon="-2.651723840070304">
        <ele>292.0</ele>
        <time>2023-02-22T12:37:49.929Z</time>
    </trkpt>
    <trkpt lat="43.15619667173151" lon="-2.651804234826836">
        <ele>290.2</ele>
        <time>2023-02-22T12:37:56.269Z</time>
    </trkpt>
    <trkpt lat="43.15675" lon="-2.65215">
        <ele>284.7</ele>
        <time>2023-02-22T12:38:35.655Z</time>
    </trkpt>
    <trkpt lat="43.1568" lon="-2.65218">
        <ele>283.6</ele>
        <time>2023-02-22T12:38:39.424Z</time>
    </trkpt>
    <trkpt lat="43.15683" lon="-2.65218">
        <ele>283.2</ele>
        <time>2023-02-22T12:38:41.619Z</time>
    </trkpt>
    <trkpt lat="43.15686" lon="-2.65219">
        <ele>282.7</ele>
        <time>2023-02-22T12:38:43.598Z</time>
    </trkpt>
    <trkpt lat="43.15688" lon="-2.65218">
        <ele>282.6</ele>
        <time>2023-02-22T12:38:45.054Z</time>
    </trkpt>
    <trkpt lat="43.1569" lon="-2.65217">
        <ele>282.4</ele>
        <time>2023-02-22T12:38:46.598Z</time>
    </trkpt>
    <trkpt lat="43.15692" lon="-2.65216">
        <ele>282.3</ele>
        <time>2023-02-22T12:38:48.226Z</time>
    </trkpt>
    <trkpt lat="43.15694" lon="-2.65215">
        <ele>282.2</ele>
        <time>2023-02-22T12:38:49.934Z</time>
    </trkpt>
    <trkpt lat="43.15695" lon="-2.65214">
        <ele>282.2</ele>
        <time>2023-02-22T12:38:50.758Z</time>
    </trkpt>
    <trkpt lat="43.15701" lon="-2.65204">
        <ele>282.7</ele>
        <time>2023-02-22T12:38:57.059Z</time>
    </trkpt>
    <trkpt lat="43.15713" lon="-2.65186">
        <ele>282.6</ele>
        <time>2023-02-22T12:39:09.156Z</time>
    </trkpt>
    <trkpt lat="43.15717" lon="-2.65179">
        <ele>282.4</ele>
        <time>2023-02-22T12:39:13.837Z</time>
    </trkpt>
    <trkpt lat="43.15725" lon="-2.65166">
        <ele>282.0</ele>
        <time>2023-02-22T12:39:23.046Z</time>
    </trkpt>
    <trkpt lat="43.15728" lon="-2.65159">
        <ele>282.0</ele>
        <time>2023-02-22T12:39:27.377Z</time>
    </trkpt>
    <trkpt lat="43.15729" lon="-2.65154">
        <ele>282.0</ele>
        <time>2023-02-22T12:39:30.290Z</time>
    </trkpt>
    <trkpt lat="43.1573" lon="-2.65149">
        <ele>281.7</ele>
        <time>2023-02-22T12:39:33.343Z</time>
    </trkpt>
    <trkpt lat="43.15732" lon="-2.65127">
        <ele>280.9</ele>
        <time>2023-02-22T12:39:46.577Z</time>
    </trkpt>
    <trkpt lat="43.15733" lon="-2.65103">
        <ele>279.4</ele>
        <time>2023-02-22T12:40:00.201Z</time>
    </trkpt>
    <trkpt lat="43.15735" lon="-2.65078">
        <ele>277.8</ele>
        <time>2023-02-22T12:40:13.843Z</time>
    </trkpt>
    <trkpt lat="43.15737" lon="-2.65054">
        <ele>276.5</ele>
        <time>2023-02-22T12:40:24.888Z</time>
    </trkpt>
    <trkpt lat="43.15738" lon="-2.65037">
        <ele>275.8</ele>
        <time>2023-02-22T12:40:31.772Z</time>
    </trkpt>
    <trkpt lat="43.1574" lon="-2.65006">
        <ele>273.6</ele>
        <time>2023-02-22T12:40:43.657Z</time>
    </trkpt>
    <trkpt lat="43.15746" lon="-2.64966">
        <ele>270.5</ele>
        <time>2023-02-22T12:40:58.553Z</time>
    </trkpt>
    <trkpt lat="43.15749" lon="-2.64956">
        <ele>269.8</ele>
        <time>2023-02-22T12:41:02.496Z</time>
    </trkpt>
    <trkpt lat="43.15751" lon="-2.64947">
        <ele>269.5</ele>
        <time>2023-02-22T12:41:06.234Z</time>
    </trkpt>
    <trkpt lat="43.15754" lon="-2.64935">
        <ele>269.0</ele>
        <time>2023-02-22T12:41:11.358Z</time>
    </trkpt>
    <trkpt lat="43.15756" lon="-2.64931">
        <ele>268.7</ele>
        <time>2023-02-22T12:41:13.165Z</time>
    </trkpt>
    <trkpt lat="43.15758" lon="-2.64928">
        <ele>268.6</ele>
        <time>2023-02-22T12:41:14.812Z</time>
    </trkpt>
    <trkpt lat="43.15764" lon="-2.64923">
        <ele>267.9</ele>
        <time>2023-02-22T12:41:19.029Z</time>
    </trkpt>
    <trkpt lat="43.15789" lon="-2.64908">
        <ele>264.2</ele>
        <time>2023-02-22T12:41:35.745Z</time>
    </trkpt>
    <trkpt lat="43.15793" lon="-2.64903">
        <ele>263.4</ele>
        <time>2023-02-22T12:41:38.798Z</time>
    </trkpt>
    <trkpt lat="43.158" lon="-2.64893">
        <ele>262.0</ele>
        <time>2023-02-22T12:41:44.272Z</time>
    </trkpt>
    <trkpt lat="43.15803" lon="-2.64888">
        <ele>261.6</ele>
        <time>2023-02-22T12:41:47.040Z</time>
    </trkpt>
    <trkpt lat="43.15817" lon="-2.64858">
        <ele>260.7</ele>
        <time>2023-02-22T12:42:00.720Z</time>
    </trkpt>
    <trkpt lat="43.1583" lon="-2.64833">
        <ele>258.1</ele>
        <time>2023-02-22T12:42:11.763Z</time>
    </trkpt>
    <trkpt lat="43.15851" lon="-2.64793">
        <ele>252.9</ele>
        <time>2023-02-22T12:42:28.845Z</time>
    </trkpt>
    <trkpt lat="43.15855" lon="-2.64786">
        <ele>252.2</ele>
        <time>2023-02-22T12:42:32.152Z</time>
    </trkpt>
    <trkpt lat="43.15858" lon="-2.64773">
        <ele>251.7</ele>
        <time>2023-02-22T12:42:37.669Z</time>
    </trkpt>
    <trkpt lat="43.158662" lon="-2.647611">
        <ele>250.6</ele>
        <time>2023-02-22T12:42:44.556Z</time>
    </trkpt>
    <trkpt lat="43.15876" lon="-2.647494">
        <ele>249.0</ele>
        <time>2023-02-22T12:42:51.540Z</time>
    </trkpt>
    <trkpt lat="43.158909" lon="-2.647376">
        <ele>247.5</ele>
        <time>2023-02-22T12:43:00.426Z</time>
    </trkpt>
    <trkpt lat="43.159074" lon="-2.647222">
        <ele>246.3</ele>
        <time>2023-02-22T12:43:11.248Z</time>
    </trkpt>
    <trkpt lat="43.159193" lon="-2.647133">
        <ele>246.1</ele>
        <time>2023-02-22T12:43:19.010Z</time>
    </trkpt>
    <trkpt lat="43.15937" lon="-2.647001">
        <ele>246.4</ele>
        <time>2023-02-22T12:43:30.497Z</time>
    </trkpt>
    <trkpt lat="43.159459" lon="-2.646883">
        <ele>245.6</ele>
        <time>2023-02-22T12:43:37.555Z</time>
    </trkpt>
    <trkpt lat="43.159549" lon="-2.646743">
        <ele>244.5</ele>
        <time>2023-02-22T12:43:45.500Z</time>
    </trkpt>
    <trkpt lat="43.159602" lon="-2.64663">
        <ele>243.7</ele>
        <time>2023-02-22T12:43:51.655Z</time>
    </trkpt>
    <trkpt lat="43.159663" lon="-2.646517">
        <ele>243.1</ele>
        <time>2023-02-22T12:43:58.122Z</time>
    </trkpt>
    <trkpt lat="43.159668" lon="-2.646349">
        <ele>242.4</ele>
        <time>2023-02-22T12:44:06.391Z</time>
    </trkpt>
    <trkpt lat="43.159692" lon="-2.646139">
        <ele>241.7</ele>
        <time>2023-02-22T12:44:17.057Z</time>
    </trkpt>
    <trkpt lat="43.159717" lon="-2.645782">
        <ele>241.0</ele>
        <time>2023-02-22T12:44:35.362Z</time>
    </trkpt>
    <trkpt lat="43.159783" lon="-2.645597">
        <ele>241.1</ele>
        <time>2023-02-22T12:44:45.969Z</time>
    </trkpt>
    <trkpt lat="43.159842" lon="-2.64531">
        <ele>241.1</ele>
        <time>2023-02-22T12:45:01.512Z</time>
    </trkpt>
    <trkpt lat="43.159902" lon="-2.645105">
        <ele>239.8</ele>
        <time>2023-02-22T12:45:12.977Z</time>
    </trkpt>
    <trkpt lat="43.159877" lon="-2.644821">
        <ele>239.3</ele>
        <time>2023-02-22T12:45:28.171Z</time>
    </trkpt>
    <trkpt lat="43.159859" lon="-2.644515">
        <ele>239.1</ele>
        <time>2023-02-22T12:45:45.123Z</time>
    </trkpt>
    <trkpt lat="43.159831" lon="-2.644257">
        <ele>238.8</ele>
        <time>2023-02-22T12:46:00.027Z</time>
    </trkpt>
    <trkpt lat="43.159822" lon="-2.64404">
        <ele>238.2</ele>
        <time>2023-02-22T12:46:12.730Z</time>
    </trkpt>
    <trkpt lat="43.159864" lon="-2.643871">
        <ele>238.0</ele>
        <time>2023-02-22T12:46:23.372Z</time>
    </trkpt>
    <trkpt lat="43.159961" lon="-2.643837">
        <ele>238.5</ele>
        <time>2023-02-22T12:46:31.712Z</time>
    </trkpt>
    <trkpt lat="43.160187" lon="-2.643762">
        <ele>238.9</ele>
        <time>2023-02-22T12:46:51.250Z</time>
    </trkpt>
    <trkpt lat="43.160335" lon="-2.643693">
        <ele>238.7</ele>
        <time>2023-02-22T12:47:04.331Z</time>
    </trkpt>
    <trkpt lat="43.160438" lon="-2.643618">
        <ele>238.4</ele>
        <time>2023-02-22T12:47:13.291Z</time>
    </trkpt>
    <trkpt lat="43.160493" lon="-2.643558">
        <ele>238.2</ele>
        <time>2023-02-22T12:47:18.783Z</time>
    </trkpt>
    <trkpt lat="43.160592" lon="-2.643504">
        <ele>237.5</ele>
        <time>2023-02-22T12:47:25.941Z</time>
    </trkpt>
    <trkpt lat="43.160695" lon="-2.643445">
        <ele>236.9</ele>
        <time>2023-02-22T12:47:33.241Z</time>
    </trkpt>
    <trkpt lat="43.160779" lon="-2.64339">
        <ele>236.2</ele>
        <time>2023-02-22T12:47:38.987Z</time>
    </trkpt>
    <trkpt lat="43.160869" lon="-2.643323">
        <ele>234.8</ele>
        <time>2023-02-22T12:47:45.045Z</time>
    </trkpt>
    <trkpt lat="43.160958" lon="-2.643264">
        <ele>233.7</ele>
        <time>2023-02-22T12:47:50.991Z</time>
    </trkpt>
    <trkpt lat="43.16108" lon="-2.643194">
        <ele>232.3</ele>
        <time>2023-02-22T12:47:58.880Z</time>
    </trkpt>
    <trkpt lat="43.161194" lon="-2.643211">
        <ele>230.6</ele>
        <time>2023-02-22T12:48:05.225Z</time>
    </trkpt>
    <trkpt lat="43.161278" lon="-2.643227">
        <ele>229.4</ele>
        <time>2023-02-22T12:48:10.122Z</time>
    </trkpt>
    <trkpt lat="43.16139" lon="-2.643235">
        <ele>227.9</ele>
        <time>2023-02-22T12:48:16.150Z</time>
    </trkpt>
    <trkpt lat="43.161451" lon="-2.643263">
        <ele>227.0</ele>
        <time>2023-02-22T12:48:19.777Z</time>
    </trkpt>
    <trkpt lat="43.161549" lon="-2.643268">
        <ele>226.0</ele>
        <time>2023-02-22T12:48:25.294Z</time>
    </trkpt>
    <trkpt lat="43.161655" lon="-2.643284">
        <ele>224.7</ele>
        <time>2023-02-22T12:48:31.361Z</time>
    </trkpt>
    <trkpt lat="43.161733" lon="-2.643269">
        <ele>224.3</ele>
        <time>2023-02-22T12:48:35.784Z</time>
    </trkpt>
    <trkpt lat="43.16184" lon="-2.643269">
        <ele>223.8</ele>
        <time>2023-02-22T12:48:41.972Z</time>
    </trkpt>
    <trkpt lat="43.161924" lon="-2.643265">
        <ele>223.6</ele>
        <time>2023-02-22T12:48:46.942Z</time>
    </trkpt>
    <trkpt lat="43.16199" lon="-2.64325">
        <ele>223.5</ele>
        <time>2023-02-22T12:48:50.946Z</time>
    </trkpt>
    <trkpt lat="43.162079" lon="-2.643211">
        <ele>223.8</ele>
        <time>2023-02-22T12:48:56.952Z</time>
    </trkpt>
    <trkpt lat="43.162165" lon="-2.643165">
        <ele>224.0</ele>
        <time>2023-02-22T12:49:03.113Z</time>
    </trkpt>
    <trkpt lat="43.162243" lon="-2.643119">
        <ele>224.1</ele>
        <time>2023-02-22T12:49:09.003Z</time>
    </trkpt>
    <trkpt lat="43.162331" lon="-2.643079">
        <ele>224.2</ele>
        <time>2023-02-22T12:49:15.734Z</time>
    </trkpt>
    <trkpt lat="43.162415" lon="-2.643022">
        <ele>224.4</ele>
        <time>2023-02-22T12:49:22.864Z</time>
    </trkpt>
    <trkpt lat="43.162505" lon="-2.643003">
        <ele>224.5</ele>
        <time>2023-02-22T12:49:30.133Z</time>
    </trkpt>
    <trkpt lat="43.162583" lon="-2.642963">
        <ele>224.7</ele>
        <time>2023-02-22T12:49:37.081Z</time>
    </trkpt>
    <trkpt lat="43.162659" lon="-2.642906">
        <ele>225.1</ele>
        <time>2023-02-22T12:49:44.625Z</time>
    </trkpt>
    <trkpt lat="43.162763" lon="-2.642813">
        <ele>225.5</ele>
        <time>2023-02-22T12:49:56.035Z</time>
    </trkpt>
    <trkpt lat="43.162853" lon="-2.642723">
        <ele>225.8</ele>
        <time>2023-02-22T12:50:06.853Z</time>
    </trkpt>
    <trkpt lat="43.162919" lon="-2.642633">
        <ele>225.9</ele>
        <time>2023-02-22T12:50:16.232Z</time>
    </trkpt>
    <trkpt lat="43.162983" lon="-2.642543">
        <ele>225.8</ele>
        <time>2023-02-22T12:50:25.972Z</time>
    </trkpt>
    <trkpt lat="43.163047" lon="-2.642466">
        <ele>225.8</ele>
        <time>2023-02-22T12:50:35.242Z</time>
    </trkpt>
    <trkpt lat="43.163113" lon="-2.642393">
        <ele>225.9</ele>
        <time>2023-02-22T12:50:44.672Z</time>
    </trkpt>
    <trkpt lat="43.163182" lon="-2.642336">
        <ele>225.7</ele>
        <time>2023-02-22T12:50:53.624Z</time>
    </trkpt>
    <trkpt lat="43.163221" lon="-2.64231">
        <ele>225.7</ele>
        <time>2023-02-22T12:50:58.439Z</time>
    </trkpt>
    <trkpt lat="43.163282" lon="-2.642214">
        <ele>226.3</ele>
        <time>2023-02-22T12:51:08.773Z</time>
    </trkpt>
    <trkpt lat="43.163302" lon="-2.642109">
        <ele>227.4</ele>
        <time>2023-02-22T12:51:17.604Z</time>
    </trkpt>
    <trkpt lat="43.16333" lon="-2.642005">
        <ele>228.1</ele>
        <time>2023-02-22T12:51:26.639Z</time>
    </trkpt>
    <trkpt lat="43.163364" lon="-2.641949">
        <ele>228.6</ele>
        <time>2023-02-22T12:51:32.567Z</time>
    </trkpt>
    <trkpt lat="43.163388" lon="-2.641851">
        <ele>229.4</ele>
        <time>2023-02-22T12:51:40.989Z</time>
    </trkpt>
    <trkpt lat="43.163411" lon="-2.641762">
        <ele>229.9</ele>
        <time>2023-02-22T12:51:48.670Z</time>
    </trkpt>
    <trkpt lat="43.163425" lon="-2.641631">
        <ele>230.1</ele>
        <time>2023-02-22T12:51:59.442Z</time>
    </trkpt>
    <trkpt lat="43.163428" lon="-2.64158">
        <ele>230.2</ele>
        <time>2023-02-22T12:52:03.641Z</time>
    </trkpt>
    <trkpt lat="43.163435" lon="-2.641491">
        <ele>230.3</ele>
        <time>2023-02-22T12:52:10.968Z</time>
    </trkpt>
    <trkpt lat="43.163452" lon="-2.641407">
        <ele>229.9</ele>
        <time>2023-02-22T12:52:18.121Z</time>
    </trkpt>
    <trkpt lat="43.163483" lon="-2.641333">
        <ele>229.0</ele>
        <time>2023-02-22T12:52:25.146Z</time>
    </trkpt>
    <trkpt lat="43.1635159" lon="-2.6412926">
        <ele>228.2</ele>
        <time>2023-02-22T12:52:30.115Z</time>
    </trkpt>
    <trkpt lat="43.163551" lon="-2.6412574">
        <ele>227.1</ele>
        <time>2023-02-22T12:52:35.057Z</time>
    </trkpt>
    <trkpt lat="43.1636101" lon="-2.6412766">
        <ele>226.1</ele>
        <time>2023-02-22T12:52:41.931Z</time>
    </trkpt>
    <trkpt lat="43.1636475" lon="-2.6413343">
        <ele>226.1</ele>
        <time>2023-02-22T12:52:48.280Z</time>
    </trkpt>
    <trkpt lat="43.163735" lon="-2.6414613">
        <ele>226.5</ele>
        <time>2023-02-22T12:53:02.609Z</time>
    </trkpt>
    <trkpt lat="43.163803" lon="-2.6416401">
        <ele>227.2</ele>
        <time>2023-02-22T12:53:18.128Z</time>
    </trkpt>
    <trkpt lat="43.1638332" lon="-2.6417523">
        <ele>228.0</ele>
        <time>2023-02-22T12:53:27.396Z</time>
    </trkpt>
    <trkpt lat="43.1642578" lon="-2.6425252">
        <ele>217.4</ele>
        <time>2023-02-22T12:54:41.325Z</time>
    </trkpt>
    <trkpt lat="43.1646724" lon="-2.6426793">
        <ele>207.4</ele>
        <time>2023-02-22T12:55:22.725Z</time>
    </trkpt>
    <trkpt lat="43.1647614" lon="-2.6426143">
        <ele>205.3</ele>
        <time>2023-02-22T12:55:32.634Z</time>
    </trkpt>
    <trkpt lat="43.1647847" lon="-2.6425116">
        <ele>204.8</ele>
        <time>2023-02-22T12:55:40.473Z</time>
    </trkpt>
    <trkpt lat="43.164876" lon="-2.6424325">
        <ele>201.3</ele>
        <time>2023-02-22T12:55:51.424Z</time>
    </trkpt>
    <trkpt lat="43.1649867" lon="-2.6425733">
        <ele>197.9</ele>
        <time>2023-02-22T12:56:06.929Z</time>
    </trkpt>
    <trkpt lat="43.165045" lon="-2.642686">
        <ele>196.2</ele>
        <time>2023-02-22T12:56:17.388Z</time>
    </trkpt>
    <trkpt lat="43.165084" lon="-2.64277">
        <ele>194.8</ele>
        <time>2023-02-22T12:56:24.995Z</time>
    </trkpt>
    <trkpt lat="43.165133" lon="-2.642882">
        <ele>191.6</ele>
        <time>2023-02-22T12:56:33.279Z</time>
    </trkpt>
    <trkpt lat="43.165169" lon="-2.642978">
        <ele>191.3</ele>
        <time>2023-02-22T12:56:40.352Z</time>
    </trkpt>
    <trkpt lat="43.165134" lon="-2.643179">
        <ele>192.3</ele>
        <time>2023-02-22T12:56:54.285Z</time>
    </trkpt>
    <trkpt lat="43.165134" lon="-2.643186">
        <ele>192.3</ele>
        <time>2023-02-22T12:56:54.768Z</time>
    </trkpt>
    <trkpt lat="43.165127" lon="-2.643272">
        <ele>192.3</ele>
        <time>2023-02-22T12:57:00.894Z</time>
    </trkpt>
    <trkpt lat="43.165088" lon="-2.643326">
        <ele>194.0</ele>
        <time>2023-02-22T12:57:06.375Z</time>
    </trkpt>
    <trkpt lat="43.165067" lon="-2.643365">
        <ele>194.4</ele>
        <time>2023-02-22T12:57:09.934Z</time>
    </trkpt>
    <trkpt lat="43.165077" lon="-2.643475">
        <ele>193.7</ele>
        <time>2023-02-22T12:57:18.185Z</time>
    </trkpt>
    <trkpt lat="43.165028" lon="-2.643526">
        <ele>194.4</ele>
        <time>2023-02-22T12:57:24.536Z</time>
    </trkpt>
    <trkpt lat="43.16495" lon="-2.643597">
        <ele>195.5</ele>
        <time>2023-02-22T12:57:34.283Z</time>
    </trkpt>
    <trkpt lat="43.164915" lon="-2.643627">
        <ele>196.0</ele>
        <time>2023-02-22T12:57:38.525Z</time>
    </trkpt>
    <trkpt lat="43.16481" lon="-2.643662">
        <ele>197.7</ele>
        <time>2023-02-22T12:57:49.612Z</time>
    </trkpt>
    <trkpt lat="43.164725" lon="-2.643673">
        <ele>198.5</ele>
        <time>2023-02-22T12:57:58.332Z</time>
    </trkpt>
    <trkpt lat="43.164639" lon="-2.643715">
        <ele>198.8</ele>
        <time>2023-02-22T12:58:07.567Z</time>
    </trkpt>
    <trkpt lat="43.164563" lon="-2.64374">
        <ele>199.2</ele>
        <time>2023-02-22T12:58:15.347Z</time>
    </trkpt>
    <trkpt lat="43.164484" lon="-2.643807">
        <ele>199.0</ele>
        <time>2023-02-22T12:58:24.534Z</time>
    </trkpt>
    <trkpt lat="43.164395" lon="-2.643891">
        <ele>198.5</ele>
        <time>2023-02-22T12:58:33.685Z</time>
    </trkpt>
    <trkpt lat="43.164299" lon="-2.643973">
        <ele>197.8</ele>
        <time>2023-02-22T12:58:43.618Z</time>
    </trkpt>
    <trkpt lat="43.164201" lon="-2.644059">
        <ele>196.7</ele>
        <time>2023-02-22T12:58:54.163Z</time>
    </trkpt>
    <trkpt lat="43.164109" lon="-2.644147">
        <ele>195.4</ele>
        <time>2023-02-22T12:59:02.256Z</time>
    </trkpt>
    <trkpt lat="43.164013" lon="-2.644224">
        <ele>194.3</ele>
        <time>2023-02-22T12:59:10.160Z</time>
    </trkpt>
    <trkpt lat="43.164002" lon="-2.644233">
        <ele>194.2</ele>
        <time>2023-02-22T12:59:10.936Z</time>
    </trkpt>
    <trkpt lat="43.163911" lon="-2.644342">
        <ele>192.8</ele>
        <time>2023-02-22T12:59:18.175Z</time>
    </trkpt>
    <trkpt lat="43.163826" lon="-2.644442">
        <ele>191.9</ele>
        <time>2023-02-22T12:59:25.198Z</time>
    </trkpt>
    <trkpt lat="43.163757" lon="-2.644512">
        <ele>192.0</ele>
        <time>2023-02-22T12:59:30.708Z</time>
    </trkpt>
    <trkpt lat="43.163674" lon="-2.644605">
        <ele>191.9</ele>
        <time>2023-02-22T12:59:37.786Z</time>
    </trkpt>
    <trkpt lat="43.163605" lon="-2.644661">
        <ele>192.1</ele>
        <time>2023-02-22T12:59:43.115Z</time>
    </trkpt>
    <trkpt lat="43.163535" lon="-2.644749">
        <ele>192.1</ele>
        <time>2023-02-22T12:59:49.527Z</time>
    </trkpt>
    <trkpt lat="43.163485" lon="-2.644813">
        <ele>192.4</ele>
        <time>2023-02-22T12:59:54.119Z</time>
    </trkpt>
    <trkpt lat="43.16343" lon="-2.644879">
        <ele>192.7</ele>
        <time>2023-02-22T12:59:59.332Z</time>
    </trkpt>
    <trkpt lat="43.163427" lon="-2.644937">
        <ele>192.3</ele>
        <time>2023-02-22T13:00:02.526Z</time>
    </trkpt>
    <trkpt lat="43.163564" lon="-2.645085">
        <ele>188.8</ele>
        <time>2023-02-22T13:00:15.615Z</time>
    </trkpt>
    <trkpt lat="43.163705" lon="-2.645197">
        <ele>186.4</ele>
        <time>2023-02-22T13:00:27.609Z</time>
    </trkpt>
    <trkpt lat="43.163833" lon="-2.645307">
        <ele>184.0</ele>
        <time>2023-02-22T13:00:38.305Z</time>
    </trkpt>
    <trkpt lat="43.163944" lon="-2.645397">
        <ele>182.3</ele>
        <time>2023-02-22T13:00:47.616Z</time>
    </trkpt>
    <trkpt lat="43.16415" lon="-2.645476">
        <ele>180.1</ele>
        <time>2023-02-22T13:01:00.744Z</time>
    </trkpt>
    <trkpt lat="43.164332" lon="-2.645563">
        <ele>177.7</ele>
        <time>2023-02-22T13:01:13.808Z</time>
    </trkpt>
    <trkpt lat="43.164492" lon="-2.645672">
        <ele>174.2</ele>
        <time>2023-02-22T13:01:24.977Z</time>
    </trkpt>
    <trkpt lat="43.164639" lon="-2.64579">
        <ele>170.0</ele>
        <time>2023-02-22T13:01:34.386Z</time>
    </trkpt>
    <trkpt lat="43.164864" lon="-2.645868">
        <ele>164.7</ele>
        <time>2023-02-22T13:01:46.107Z</time>
    </trkpt>
    <trkpt lat="43.164867" lon="-2.645868">
        <ele>164.7</ele>
        <time>2023-02-22T13:01:46.271Z</time>
    </trkpt>
    <trkpt lat="43.165038" lon="-2.645864">
        <ele>162.1</ele>
        <time>2023-02-22T13:01:54.830Z</time>
    </trkpt>
    <trkpt lat="43.165161" lon="-2.645872">
        <ele>160.0</ele>
        <time>2023-02-22T13:02:01.544Z</time>
    </trkpt>
    <trkpt lat="43.165208" lon="-2.64586">
        <ele>159.4</ele>
        <time>2023-02-22T13:02:04.362Z</time>
    </trkpt>
    <trkpt lat="43.165333" lon="-2.645815">
        <ele>158.2</ele>
        <time>2023-02-22T13:02:12.555Z</time>
    </trkpt>
    <trkpt lat="43.165493" lon="-2.645814">
        <ele>155.5</ele>
        <time>2023-02-22T13:02:22.662Z</time>
    </trkpt>
    <trkpt lat="43.16565" lon="-2.6458">
        <ele>153.3</ele>
        <time>2023-02-22T13:02:31.432Z</time>
    </trkpt>
    <trkpt lat="43.1659" lon="-2.64573">
        <ele>150.6</ele>
        <time>2023-02-22T13:02:46.037Z</time>
    </trkpt>
    <trkpt lat="43.16629" lon="-2.64561">
        <ele>145.7</ele>
        <time>2023-02-22T13:03:08.251Z</time>
    </trkpt>
    <trkpt lat="43.16633" lon="-2.64559">
        <ele>145.0</ele>
        <time>2023-02-22T13:03:10.807Z</time>
    </trkpt>
    <trkpt lat="43.16649" lon="-2.64555">
        <ele>141.1</ele>
        <time>2023-02-22T13:03:20.804Z</time>
    </trkpt>
    <trkpt lat="43.1666" lon="-2.64554">
        <ele>136.9</ele>
        <time>2023-02-22T13:03:27.572Z</time>
    </trkpt>
    <trkpt lat="43.16664" lon="-2.64554">
        <ele>135.4</ele>
        <time>2023-02-22T13:03:30.147Z</time>
    </trkpt>
    <trkpt lat="43.16674" lon="-2.64553">
        <ele>132.2</ele>
        <time>2023-02-22T13:03:36.086Z</time>
    </trkpt>
    <trkpt lat="43.16706" lon="-2.64552">
        <ele>125.9</ele>
        <time>2023-02-22T13:03:53.855Z</time>
    </trkpt>
    <trkpt lat="43.16718" lon="-2.64552">
        <ele>124.9</ele>
        <time>2023-02-22T13:04:00.512Z</time>
    </trkpt>
    <trkpt lat="43.167306" lon="-2.645476">
        <ele>124.5</ele>
        <time>2023-02-22T13:04:07.361Z</time>
    </trkpt>
    <trkpt lat="43.16735" lon="-2.645386">
        <ele>123.7</ele>
        <time>2023-02-22T13:04:11.426Z</time>
    </trkpt>
    <trkpt lat="43.167378" lon="-2.645271">
        <ele>122.7</ele>
        <time>2023-02-22T13:04:15.855Z</time>
    </trkpt>
    <trkpt lat="43.167433" lon="-2.645029">
        <ele>120.1</ele>
        <time>2023-02-22T13:04:25.075Z</time>
    </trkpt>
    <trkpt lat="43.167474" lon="-2.64486">
        <ele>119.0</ele>
        <time>2023-02-22T13:04:31.308Z</time>
    </trkpt>
    <trkpt lat="43.167491" lon="-2.644717">
        <ele>118.2</ele>
        <time>2023-02-22T13:04:36.242Z</time>
    </trkpt>
    <trkpt lat="43.167537" lon="-2.644594">
        <ele>116.9</ele>
        <time>2023-02-22T13:04:41.356Z</time>
    </trkpt>
    <trkpt lat="43.167554" lon="-2.644454">
        <ele>115.9</ele>
        <time>2023-02-22T13:04:46.792Z</time>
    </trkpt>
    <trkpt lat="43.167564" lon="-2.644281">
        <ele>115.2</ele>
        <time>2023-02-22T13:04:53.478Z</time>
    </trkpt>
    <trkpt lat="43.16758" lon="-2.644184">
        <ele>114.8</ele>
        <time>2023-02-22T13:04:57.407Z</time>
    </trkpt>
    <trkpt lat="43.167568" lon="-2.644026">
        <ele>114.8</ele>
        <time>2023-02-22T13:05:04.028Z</time>
    </trkpt>
    <trkpt lat="43.167602" lon="-2.643795">
        <ele>115.3</ele>
        <time>2023-02-22T13:05:14.507Z</time>
    </trkpt>
    <trkpt lat="43.167625" lon="-2.643609">
        <ele>116.3</ele>
        <time>2023-02-22T13:05:23.393Z</time>
    </trkpt>
    <trkpt lat="43.167672" lon="-2.643383">
        <ele>117.5</ele>
        <time>2023-02-22T13:05:35.090Z</time>
    </trkpt>
    <trkpt lat="43.16762990588413" lon="-2.64323951145208">
        <ele>117.5</ele>
        <time>2023-02-22T13:05:43.178Z</time>
    </trkpt>
    <trkpt lat="43.16754225957565" lon="-2.643079084818203">
        <ele>117.9</ele>
        <time>2023-02-22T13:05:54.099Z</time>
    </trkpt>
    <trkpt lat="43.16751022373214" lon="-2.642984534629035">
        <ele>117.7</ele>
        <time>2023-02-22T13:06:00.010Z</time>
    </trkpt>
    <trkpt lat="43.16748065853318" lon="-2.642937263640372">
        <ele>117.7</ele>
        <time>2023-02-22T13:06:03.524Z</time>
    </trkpt>
    <trkpt lat="43.16746092730815" lon="-2.642775167188111">
        <ele>117.1</ele>
        <time>2023-02-22T13:06:12.905Z</time>
    </trkpt>
    <trkpt lat="43.16744120217468" lon="-2.64265190774264">
        <ele>116.7</ele>
        <time>2023-02-22T13:06:20.113Z</time>
    </trkpt>
    <trkpt lat="43.16741900370669" lon="-2.642467860490721">
        <ele>116.2</ele>
        <time>2023-02-22T13:06:31.081Z</time>
    </trkpt>
    <trkpt lat="43.16740665433255" lon="-2.642265235630681">
        <ele>115.6</ele>
        <time>2023-02-22T13:06:43.279Z</time>
    </trkpt>
    <trkpt lat="43.16738815721054" lon="-2.642125089617147">
        <ele>115.2</ele>
        <time>2023-02-22T13:06:52.035Z</time>
    </trkpt>
    <trkpt lat="43.16737705273786" lon="-2.642005204013282">
        <ele>114.8</ele>
        <time>2023-02-22T13:06:59.588Z</time>
    </trkpt>
    <trkpt lat="43.16736594662732" lon="-2.641871347294773">
        <ele>114.3</ele>
        <time>2023-02-22T13:07:08.302Z</time>
    </trkpt>
    <trkpt lat="43.16738071251501" lon="-2.64179535699506">
        <ele>114.0</ele>
        <time>2023-02-22T13:07:13.018Z</time>
    </trkpt>
    <trkpt lat="43.16742134274819" lon="-2.641727801207586">
        <ele>114.0</ele>
        <time>2023-02-22T13:07:18.271Z</time>
    </trkpt>
    <trkpt lat="43.16747430027255" lon="-2.641727784300421">
        <ele>113.9</ele>
        <time>2023-02-22T13:07:22.619Z</time>
    </trkpt>
    <trkpt lat="43.16756543239465" lon="-2.641704115055936">
        <ele>113.7</ele>
        <time>2023-02-22T13:07:30.146Z</time>
    </trkpt>
    <trkpt lat="43.16768397219906" lon="-2.641678747901319">
        <ele>113.3</ele>
        <time>2023-02-22T13:07:40.180Z</time>
    </trkpt>
    <trkpt lat="43.16777141316828" lon="-2.641675342769373">
        <ele>112.9</ele>
        <time>2023-02-22T13:07:47.676Z</time>
    </trkpt>
    <trkpt lat="43.1678477673294" lon="-2.641656743861269">
        <ele>112.5</ele>
        <time>2023-02-22T13:07:54.346Z</time>
    </trkpt>
    <trkpt lat="43.167945058455" lon="-2.641639826708551">
        <ele>111.8</ele>
        <time>2023-02-22T13:08:03.072Z</time>
    </trkpt>
    <trkpt lat="43.16802510847712" lon="-2.64162798078295">
        <ele>111.2</ele>
        <time>2023-02-22T13:08:10.230Z</time>
    </trkpt>
    <trkpt lat="43.16815272815109" lon="-2.641604299183399">
        <ele>110.6</ele>
        <time>2023-02-22T13:08:21.827Z</time>
    </trkpt>
    <trkpt lat="43.16824755616154" lon="-2.641587382655111">
        <ele>110.7</ele>
        <time>2023-02-22T13:08:29.807Z</time>
    </trkpt>
    <trkpt lat="43.16832637433276" lon="-2.641573848389902">
        <ele>110.8</ele>
        <time>2023-02-22T13:08:36.362Z</time>
    </trkpt>
    <trkpt lat="43.16838918210485" lon="-2.641560319226203">
        <ele>110.9</ele>
        <time>2023-02-22T13:08:41.634Z</time>
    </trkpt>
    <trkpt lat="43.16849139959856" lon="-2.641543399926821">
        <ele>111.2</ele>
        <time>2023-02-22T13:08:50.316Z</time>
    </trkpt>
    <trkpt lat="43.16864780895882" lon="-2.64154166019829">
        <ele>111.3</ele>
        <time>2023-02-22T13:09:03.754Z</time>
    </trkpt>
    </trkseg>
</trk>
</gpx>